Observation data for Fort Lewis CO on 03/10/2018      Previous  Date  Next       Current Mesonet Observations  Soil Data  Daily Summary Page  Observations in Plain Language
KFL1 100600Z 28006KT 03/M13 A30 RMK A01 T00291131  RH  030%=      5-min Rain = 0
KFL1 100601Z 28006KT 02/M13 A30 RMK A01 T00231129  RH  031%=      5-min Rain = 0
KFL1 100602Z 28006KT 02/M13 A30 RMK A01 T00221126  RH  033%=      5-min Rain = 0
KFL1 100603Z 29006KT 02/M12 A30 RMK A01 T00171124  RH  034%=      5-min Rain = 0
KFL1 100604Z 29006KT 01/M12 A30 RMK A01 T00121120  RH  037%=      5-min Rain = 0
KFL1 100605Z 29006KT 01/M12 A30 RMK A01 T00071119  RH  038%=      5-min Rain = 0
KFL1 100606Z 29006KT 00/M12 A30 RMK A01 T00041120  RH  039%=      5-min Rain = 0
KFL1 100607Z 29005KT 01/M12 A30 RMK A01 T00051121  RH  038%=      5-min Rain = 0
KFL1 100608Z 29005KT 01/M12 A30 RMK A01 T00091123  RH  036%=      5-min Rain = 0
KFL1 100609Z 29005KT 01/M12 A30 RMK A01 T00111123  RH  036%=      5-min Rain = 0
KFL1 100610Z 29005KT 01/M12 A30 RMK A01 T00071120  RH  038%=      5-min Rain = 0
KFL1 100611Z 29005KT 00/M12 A30 RMK A01 T00041120  RH  039%=      5-min Rain = 0
KFL1 100612Z 29005KT 00/M12 A30 RMK A01 T00021120  RH  039%=      5-min Rain = 0
KFL1 100613Z 29005KT 00/M12 A2999 RMK A01 T00041122  RH  038%=      5-min Rain = 0
KFL1 100614Z 29005KT 01/M12 A2999 RMK A01 T00061123  RH  037%=      5-min Rain = 0
KFL1 100615Z 29005KT 01/M12 A2999 RMK A01 T00071121  RH  038%=      5-min Rain = 0
KFL1 100616Z 29005KT 00/M12 A2999 RMK A01 T00041118  RH  040%=      5-min Rain = 0
KFL1 100617Z 29005KT M00/M12 A2999 RMK A01 T10011115  RH  042%=      5-min Rain = 0
KFL1 100618Z 29005KT M01/M11 A2999 RMK A01 T10061112  RH  044%=      5-min Rain = 0
KFL1 100619Z 29005KT M01/M11 A30 RMK A01 T10091110  RH  047%=      5-min Rain = 0
KFL1 100620Z 29005KT M01/M11 A30 RMK A01 T10111108  RH  048%=      5-min Rain = 0
KFL1 100621Z 29005KT M02/M11 A30 RMK A01 T10151109  RH  049%=      5-min Rain = 0
KFL1 100622Z 30005KT M02/M11 A30 RMK A01 T10201105  RH  052%=      5-min Rain = 0
KFL1 100623Z 30005KT M03/M11 A30 RMK A01 T10251106  RH  054%=      5-min Rain = 0
KFL1 100624Z 30005KT M02/M11 A30 RMK A01 T10211111  RH  050%=      5-min Rain = 0
KFL1 100625Z 30005KT M02/M11 A30 RMK A01 T10171109  RH  049%=      5-min Rain = 0
KFL1 100626Z 30005KT M01/M11 A30 RMK A01 T10141111  RH  047%=      5-min Rain = 0
KFL1 100627Z 30005KT M01/M11 A30 RMK A01 T10111111  RH  047%=      5-min Rain = 0
KFL1 100628Z 30006KT M01/M11 A30 RMK A01 T10121109  RH  048%=      5-min Rain = 0
KFL1 100629Z 30005KT M02/M11 A30 RMK A01 T10161108  RH  050%=      5-min Rain = 0
KFL1 100630Z 30005KT M02/M11 A30 RMK A01 T10201105  RH  052%=      5-min Rain = 0
KFL1 100631Z 30005KT M03/M11 A2999 RMK A01 T10261105  RH  054%=      5-min Rain = 0
KFL1 100632Z 30005KT M03/M11 A2999 RMK A01 T10261108  RH  053%=      5-min Rain = 0
KFL1 100633Z 30005KT M03/M10 A2999 RMK A01 T10261104  RH  055%=      5-min Rain = 0
KFL1 100634Z 30006KT M03/M10 A2999 RMK A01 T10311103  RH  057%=      5-min Rain = 0
KFL1 100635Z 30006KT M03/M10 A2999 RMK A01 T10281104  RH  056%=      5-min Rain = 0
KFL1 100636Z 30005KT M03/M10 A2999 RMK A01 T10251102  RH  055%=      5-min Rain = 0
KFL1 100637Z 31005KT M03/M10 A2999 RMK A01 T10261103  RH  055%=      5-min Rain = 0
KFL1 100638Z 31005KT M03/M10 A2999 RMK A01 T10261103  RH  056%=      5-min Rain = 0
KFL1 100639Z 31006KT M03/M10 A2999 RMK A01 T10281102  RH  057%=      5-min Rain = 0
KFL1 100640Z 31006KT M03/M10 A2999 RMK A01 T10301101  RH  058%=      5-min Rain = 0
KFL1 100641Z 30005KT M03/M10 A2999 RMK A01 T10281102  RH  057%=      5-min Rain = 0
KFL1 100642Z 30005KT M02/M10 A2999 RMK A01 T10241103  RH  054%=      5-min Rain = 0
KFL1 100643Z 30005KT M02/M11 A2999 RMK A01 T10221105  RH  053%=      5-min Rain = 0
KFL1 100644Z 31005KT M02/M10 A2999 RMK A01 T10211103  RH  054%=      5-min Rain = 0
KFL1 100645Z 30005KT M03/M10 A2999 RMK A01 T10271099  RH  057%=      5-min Rain = 0
KFL1 100646Z 30005KT M03/M10 A2999 RMK A01 T10321100  RH  059%=      5-min Rain = 0
KFL1 100647Z 30005KT M03/M10 A2999 RMK A01 T10321099  RH  060%=      5-min Rain = 0
KFL1 100648Z 30005KT M04/M10 A2999 RMK A01 T10361095  RH  063%=      5-min Rain = 0
KFL1 100649Z 30005KT M04/M09 A2999 RMK A01 T10391094  RH  066%=      5-min Rain = 0
KFL1 100650Z 31005KT M04/M09 A2999 RMK A01 T10391093  RH  066%=      5-min Rain = 0
KFL1 100651Z 31005KT M04/M09 A2999 RMK A01 T10371092  RH  065%=      5-min Rain = 0
KFL1 100652Z 31005KT M04/M09 A2999 RMK A01 T10381091  RH  067%=      5-min Rain = 0
KFL1 100653Z 31005KT M04/M09 A2999 RMK A01 T10411091  RH  068%=      5-min Rain = 0
KFL1 100654Z 31005KT M04/M09 A2999 RMK A01 T10421090  RH  069%=      5-min Rain = 0
KFL1 100655Z 31005KT M04/M09 A2999 RMK A01 T10421088  RH  070%=      5-min Rain = 0
KFL1 100656Z 31005KT M04/M09 A2999 RMK A01 T10441088  RH  071%=      5-min Rain = 0
KFL1 100657Z 31005KT M04/M09 A2999 RMK A01 T10441088  RH  071%=      5-min Rain = 0
KFL1 100658Z 31004KT M04/M09 A2999 RMK A01 T10431087  RH  071%=      5-min Rain = 0
KFL1 100659Z 31005KT M04/M09 A2999 RMK A01 T10431086  RH  072%=      5-min Rain = 0
KFL1 100700Z 31005KT M04/M09 A2999 RMK A01 T10431087  RH  072%=      5-min Rain = 0
KFL1 100701Z 31005KT M04/M09 A2999 RMK A01 T10431086  RH  072%=      5-min Rain = 0
KFL1 100702Z 31005KT M04/M09 A2999 RMK A01 T10441088  RH  071%=      5-min Rain = 0
KFL1 100703Z 31005KT M04/M09 A2999 RMK A01 T10391089  RH  068%=      5-min Rain = 0
KFL1 100704Z 32005KT M04/M09 A2999 RMK A01 T10391089  RH  068%=      5-min Rain = 0
KFL1 100705Z 32006KT M04/M09 A2999 RMK A01 T10401088  RH  069%=      5-min Rain = 0
KFL1 100706Z 32005KT M04/M09 A2999 RMK A01 T10421089  RH  069%=      5-min Rain = 0
KFL1 100707Z 32006KT M04/M09 A2999 RMK A01 T10411087  RH  070%=      5-min Rain = 0
KFL1 100708Z 32005KT M04/M09 A2999 RMK A01 T10421088  RH  071%=      5-min Rain = 0
KFL1 100709Z 32005KT M04/M09 A2999 RMK A01 T10431089  RH  070%=      5-min Rain = 0
KFL1 100710Z 32006KT M04/M09 A2999 RMK A01 T10421087  RH  071%=      5-min Rain = 0
KFL1 100711Z 32005KT M04/M09 A2999 RMK A01 T10431089  RH  070%=      5-min Rain = 0
KFL1 100712Z 32006KT M04/M09 A2999 RMK A01 T10431088  RH  071%=      5-min Rain = 0
KFL1 100713Z 32005KT M04/M09 A2999 RMK A01 T10431088  RH  071%=      5-min Rain = 0
KFL1 100714Z 32006KT M04/M09 A2999 RMK A01 T10441088  RH  071%=      5-min Rain = 0
KFL1 100715Z 32006KT M04/M09 A2999 RMK A01 T10421088  RH  071%=      5-min Rain = 0
KFL1 100716Z 32006KT M04/M09 A2999 RMK A01 T10421088  RH  070%=      5-min Rain = 0
KFL1 100717Z 32006KT M04/M09 A2999 RMK A01 T10411089  RH  069%=      5-min Rain = 0
KFL1 100718Z 32006KT M04/M09 A2999 RMK A01 T10411089  RH  069%=      5-min Rain = 0
KFL1 100719Z 32006KT M04/M09 A2999 RMK A01 T10401089  RH  069%=      5-min Rain = 0
KFL1 100720Z 32006KT M04/M09 A2999 RMK A01 T10411089  RH  069%=      5-min Rain = 0
KFL1 100721Z 33006KT M04/M09 A2999 RMK A01 T10411090  RH  069%=      5-min Rain = 0
KFL1 100722Z 33006KT M04/M09 A2999 RMK A01 T10401091  RH  068%=      5-min Rain = 0
KFL1 100723Z 32006KT M04/M09 A2999 RMK A01 T10401091  RH  067%=      5-min Rain = 0
KFL1 100724Z 32006KT M04/M09 A2999 RMK A01 T10401091  RH  067%=      5-min Rain = 0
KFL1 100725Z 32006KT M04/M09 A2999 RMK A01 T10401091  RH  068%=      5-min Rain = 0
KFL1 100726Z 32006KT M04/M09 A2999 RMK A01 T10391090  RH  068%=      5-min Rain = 0
KFL1 100727Z 32006KT M04/M09 A2999 RMK A01 T10391090  RH  067%=      5-min Rain = 0
KFL1 100728Z 32006KT M04/M09 A2999 RMK A01 T10401092  RH  067%=      5-min Rain = 0
KFL1 100729Z 33005KT M04/M09 A2999 RMK A01 T10401092  RH  067%=      5-min Rain = 0
KFL1 100730Z 33006KT M04/M09 A2999 RMK A01 T10401093  RH  067%=      5-min Rain = 0
KFL1 100731Z 33006KT M04/M09 A2999 RMK A01 T10381091  RH  067%=      5-min Rain = 0
KFL1 100732Z 33006KT M04/M09 A2999 RMK A01 T10381091  RH  067%=      5-min Rain = 0
KFL1 100733Z 33006KT M04/M09 A2999 RMK A01 T10371091  RH  067%=      5-min Rain = 0
KFL1 100734Z 33006KT M04/M09 A2999 RMK A01 T10351093  RH  064%=      5-min Rain = 0
KFL1 100735Z 33006KT M03/M09 A2999 RMK A01 T10321093  RH  063%=      5-min Rain = 0
KFL1 100736Z 33006KT M03/M09 A2999 RMK A01 T10291090  RH  063%=      5-min Rain = 0
KFL1 100737Z 33006KT M03/M09 A2999 RMK A01 T10311090  RH  064%=      5-min Rain = 0
KFL1 100738Z 33006KT M03/M09 A2999 RMK A01 T10331089  RH  065%=      5-min Rain = 0
KFL1 100739Z 33006KT M03/M09 A2999 RMK A01 T10331086  RH  067%=      5-min Rain = 0
KFL1 100740Z 33006KT M04/M09 A2999 RMK A01 T10351086  RH  068%=      5-min Rain = 0
KFL1 100741Z 32006KT M03/M08 A30 RMK A01 T10341084  RH  068%=      5-min Rain = 0
KFL1 100742Z 32006KT M04/M08 A2999 RMK A01 T10351084  RH  069%=      5-min Rain = 0
KFL1 100743Z 32005KT M04/M08 A2999 RMK A01 T10361084  RH  070%=      5-min Rain = 0
KFL1 100744Z 32005KT M04/M08 A2999 RMK A01 T10351083  RH  070%=      5-min Rain = 0
KFL1 100745Z 32005KT M04/M09 A2999 RMK A01 T10361086  RH  069%=      5-min Rain = 0
KFL1 100746Z 32005KT M03/M08 A30 RMK A01 T10331084  RH  068%=      5-min Rain = 0
KFL1 100747Z 32005KT M03/M08 A30 RMK A01 T10341084  RH  068%=      5-min Rain = 0
KFL1 100748Z 32005KT M04/M09 A30 RMK A01 T10351085  RH  068%=      5-min Rain = 0
KFL1 100749Z 32005KT M03/M09 A30 RMK A01 T10341085  RH  068%=      5-min Rain = 0
KFL1 100750Z 32005KT M03/M08 A30 RMK A01 T10331084  RH  068%=      5-min Rain = 0
KFL1 100751Z 32005KT M04/M09 A30 RMK A01 T10351086  RH  068%=      5-min Rain = 0
KFL1 100752Z 32005KT M04/M09 A30 RMK A01 T10351085  RH  068%=      5-min Rain = 0
KFL1 100753Z 31005KT M04/M09 A30 RMK A01 T10361086  RH  068%=      5-min Rain = 0
KFL1 100754Z 31005KT M04/M09 A30 RMK A01 T10351087  RH  067%=      5-min Rain = 0
KFL1 100755Z 31005KT M03/M10 A30 RMK A01 T10251096  RH  058%=      5-min Rain = 0
KFL1 100756Z 31005KT M01/M10 A30 RMK A01 T10131103  RH  050%=      5-min Rain = 0
KFL1 100757Z 30005KT M01/M11 A30 RMK A01 T10071106  RH  047%=      5-min Rain = 0
KFL1 100758Z 30005KT M00/M11 A30 RMK A01 T10011107  RH  045%=      5-min Rain = 0
KFL1 100759Z 30005KT 00/M11 A30 RMK A01 T00021110  RH  043%=      5-min Rain = 0
KFL1 100800Z 30005KT 00/M10 A30 RMK A01 T00011102  RH  046%=      5-min Rain = 0
KFL1 100801Z 30004KT M01/M10 A30 RMK A01 T10061098  RH  050%=      5-min Rain = 0
KFL1 100802Z 29004KT M01/M10 A30 RMK A01 T10081103  RH  049%=      5-min Rain = 0
KFL1 100803Z 29004KT M01/M10 A30 RMK A01 T10061102  RH  048%=      5-min Rain = 0
KFL1 100804Z 29004KT M01/M10 A30 RMK A01 T10091098  RH  051%=      5-min Rain = 0
KFL1 100805Z 29004KT M01/M10 A30 RMK A01 T10081104  RH  048%=      5-min Rain = 0
KFL1 100806Z 28004KT M00/M11 A30 RMK A01 T10031114  RH  043%=      5-min Rain = 0
KFL1 100807Z 27003KT 00/M12 A3001 RMK A01 T00031118  RH  040%=      5-min Rain = 0
KFL1 100808Z 27004KT 01/M12 A3001 RMK A01 T00061124  RH  037%=      5-min Rain = 0
KFL1 100809Z 26004KT 01/M13 A3001 RMK A01 T00111125  RH  036%=      5-min Rain = 0
KFL1 100810Z 25004KT 01/M13 A3001 RMK A01 T00121127  RH  035%=      5-min Rain = 0
KFL1 100811Z 25004KT 02/M13 A3001 RMK A01 T00151127  RH  034%=      5-min Rain = 0
KFL1 100812Z 25004KT 02/M12 A3001 RMK A01 T00171123  RH  034%=      5-min Rain = 0
KFL1 100813Z 25005KT 02/M12 A3001 RMK A01 T00181121  RH  035%=      5-min Rain = 0
KFL1 100814Z 25004KT 02/M12 A3001 RMK A01 T00161122  RH  035%=      5-min Rain = 0
KFL1 100815Z 25005KT 02/M12 A3001 RMK A01 T00171117  RH  036%=      5-min Rain = 0
KFL1 100816Z 25005KT 02/M12 A3001 RMK A01 T00161117  RH  036%=      5-min Rain = 0
KFL1 100817Z 25005KT 02/M12 A3001 RMK A01 T00161119  RH  036%=      5-min Rain = 0
KFL1 100818Z 26005KT 02/M12 A3001 RMK A01 T00171115  RH  037%=      5-min Rain = 0
KFL1 100819Z 26005KT 02/M11 A3001 RMK A01 T00151114  RH  038%=      5-min Rain = 0
KFL1 100820Z 26005KT 02/M12 A30 RMK A01 T00151115  RH  037%=      5-min Rain = 0
KFL1 100821Z 26004KT 02/M11 A30 RMK A01 T00151114  RH  038%=      5-min Rain = 0
KFL1 100822Z 26004KT 02/M11 A30 RMK A01 T00161112  RH  038%=      5-min Rain = 0
KFL1 100823Z 26004KT 02/M12 A30 RMK A01 T00171116  RH  036%=      5-min Rain = 0
KFL1 100824Z 26004KT 02/M12 A30 RMK A01 T00191115  RH  036%=      5-min Rain = 0
KFL1 100825Z 26004KT 02/M12 A30 RMK A01 T00181115  RH  037%=      5-min Rain = 0
KFL1 100826Z 26004KT 02/M12 A30 RMK A01 T00181119  RH  036%=      5-min Rain = 0
KFL1 100827Z 26004KT 02/M12 A30 RMK A01 T00191122  RH  034%=      5-min Rain = 0
KFL1 100828Z 27004KT 02/M12 A30 RMK A01 T00181120  RH  035%=      5-min Rain = 0
KFL1 100829Z 27004KT 02/M12 A30 RMK A01 T00201117  RH  036%=      5-min Rain = 0
KFL1 100830Z 26004KT 02/M12 A30 RMK A01 T00201119  RH  035%=      5-min Rain = 0
KFL1 100831Z 27004KT 02/M12 A30 RMK A01 T00201120  RH  035%=      5-min Rain = 0
KFL1 100832Z 27004KT 02/M12 A30 RMK A01 T00211120  RH  035%=      5-min Rain = 0
KFL1 100833Z 27004KT 02/M12 A30 RMK A01 T00201118  RH  035%=      5-min Rain = 0
KFL1 100834Z 27003KT 02/M12 A30 RMK A01 T00191117  RH  036%=      5-min Rain = 0
KFL1 100835Z 27003KT 02/M11 A30 RMK A01 T00181110  RH  038%=      5-min Rain = 0
KFL1 100836Z 27003KT 02/M11 A30 RMK A01 T00151110  RH  039%=      5-min Rain = 0
KFL1 100837Z 26003KT 02/M12 A30 RMK A01 T00151118  RH  037%=      5-min Rain = 0
KFL1 100838Z 26003KT 02/M12 A3001 RMK A01 T00171115  RH  037%=      5-min Rain = 0
KFL1 100839Z 26003KT 02/M11 A3001 RMK A01 T00171110  RH  038%=      5-min Rain = 0
KFL1 100840Z 26003KT 01/M11 A3001 RMK A01 T00141109  RH  039%=      5-min Rain = 0
KFL1 100841Z 26003KT 01/M11 A30 RMK A01 T00141110  RH  039%=      5-min Rain = 0
KFL1 100842Z 26003KT 01/M11 A30 RMK A01 T00141110  RH  039%=      5-min Rain = 0
KFL1 100843Z 26003KT 01/M11 A30 RMK A01 T00141114  RH  038%=      5-min Rain = 0
KFL1 100844Z 26003KT 02/M12 A3001 RMK A01 T00171118  RH  036%=      5-min Rain = 0
KFL1 100845Z 26004KT 02/M12 A3001 RMK A01 T00181119  RH  035%=      5-min Rain = 0
KFL1 100846Z 26004KT 02/M12 A3001 RMK A01 T00191115  RH  036%=      5-min Rain = 0
KFL1 100847Z 26003KT 02/M12 A30 RMK A01 T00201115  RH  036%=      5-min Rain = 0
KFL1 100848Z 26003KT 02/M12 A30 RMK A01 T00181119  RH  035%=      5-min Rain = 0
KFL1 100849Z 26003KT 02/M12 A30 RMK A01 T00191117  RH  036%=      5-min Rain = 0
KFL1 100850Z 26003KT 02/M12 A30 RMK A01 T00221118  RH  035%=      5-min Rain = 0
KFL1 100851Z 25003KT 02/M12 A30 RMK A01 T00211119  RH  035%=      5-min Rain = 0
KFL1 100852Z 25003KT 02/M12 A30 RMK A01 T00211117  RH  035%=      5-min Rain = 0
KFL1 100853Z 26003KT 02/M12 A30 RMK A01 T00211122  RH  034%=      5-min Rain = 0
KFL1 100854Z 26003KT 02/M13 A30 RMK A01 T00221126  RH  032%=      5-min Rain = 0
KFL1 100855Z 27003KT 03/M12 A30 RMK A01 T00261122  RH  033%=      5-min Rain = 0
KFL1 100856Z 28003KT 03/M12 A30 RMK A01 T00261122  RH  033%=      5-min Rain = 0
KFL1 100857Z 28003KT 02/M12 A30 RMK A01 T00241117  RH  034%=      5-min Rain = 0
KFL1 100858Z 28003KT 02/M11 A30 RMK A01 T00211111  RH  037%=      5-min Rain = 0
KFL1 100859Z 28003KT 02/M11 A30 RMK A01 T00151108  RH  039%=      5-min Rain = 0
KFL1 100900Z 29003KT 01/M11 A30 RMK A01 T00121108  RH  040%=      5-min Rain = 0
KFL1 100901Z 29004KT 01/M11 A30 RMK A01 T00101109  RH  041%=      5-min Rain = 0
KFL1 100902Z 29004KT 01/M11 A30 RMK A01 T00111107  RH  041%=      5-min Rain = 0
KFL1 100903Z 29004KT 01/M10 A30 RMK A01 T00071103  RH  043%=      5-min Rain = 0
KFL1 100904Z 29004KT 01/M10 A30 RMK A01 T00051101  RH  045%=      5-min Rain = 0
KFL1 100905Z 29004KT 01/M11 A30 RMK A01 T00051105  RH  043%=      5-min Rain = 0
KFL1 100906Z 29004KT 01/M11 A30 RMK A01 T00091113  RH  040%=      5-min Rain = 0
KFL1 100907Z 30004KT 01/M11 A30 RMK A01 T00121114  RH  039%=      5-min Rain = 0
KFL1 100908Z 30005KT 01/M11 A30 RMK A01 T00141112  RH  038%=      5-min Rain = 0
KFL1 100909Z 30004KT 01/M11 A30 RMK A01 T00141107  RH  040%=      5-min Rain = 0
KFL1 100910Z 30004KT 01/M11 A30 RMK A01 T00111105  RH  042%=      5-min Rain = 0
KFL1 100911Z 30004KT 01/M11 A30 RMK A01 T00111105  RH  042%=      5-min Rain = 0
KFL1 100912Z 29004KT 01/M10 A30 RMK A01 T00101098  RH  044%=      5-min Rain = 0
KFL1 100913Z 30004KT 01/M11 A30 RMK A01 T00091107  RH  041%=      5-min Rain = 0
KFL1 100914Z 29004KT 01/M12 A30 RMK A01 T00131115  RH  038%=      5-min Rain = 0
KFL1 100915Z 29004KT 02/M12 A30 RMK A01 T00171120  RH  035%=      5-min Rain = 0
KFL1 100916Z 29004KT 02/M12 A30 RMK A01 T00211121  RH  034%=      5-min Rain = 0
KFL1 100917Z 29003KT 02/M12 A30 RMK A01 T00231118  RH  034%=      5-min Rain = 0
KFL1 100918Z 28003KT 02/M12 A30 RMK A01 T00221115  RH  036%=      5-min Rain = 0
KFL1 100919Z 28003KT 02/M11 A30 RMK A01 T00211113  RH  036%=      5-min Rain = 0
KFL1 100920Z 28003KT 02/M12 A30 RMK A01 T00211115  RH  036%=      5-min Rain = 0
KFL1 100921Z 29003KT 02/M11 A30 RMK A01 T00221114  RH  036%=      5-min Rain = 0
KFL1 100922Z 29003KT 02/M11 A30 RMK A01 T00201113  RH  037%=      5-min Rain = 0
KFL1 100923Z 28003KT 02/M11 A30 RMK A01 T00191114  RH  037%=      5-min Rain = 0
KFL1 100924Z 28003KT 02/M12 A30 RMK A01 T00181120  RH  035%=      5-min Rain = 0
KFL1 100925Z 28003KT 02/M13 A30 RMK A01 T00211125  RH  033%=      5-min Rain = 0
KFL1 100926Z 28003KT 02/M13 A30 RMK A01 T00231125  RH  033%=      5-min Rain = 0
KFL1 100927Z 28002KT 02/M12 A30 RMK A01 T00241119  RH  034%=      5-min Rain = 0
KFL1 100928Z 28002KT 02/M12 A30 RMK A01 T00241123  RH  033%=      5-min Rain = 0
KFL1 100929Z 27002KT 02/M12 A30 RMK A01 T00241123  RH  033%=      5-min Rain = 0
KFL1 100930Z 27002KT 03/M13 A2999 RMK A01 T00271127  RH  031%=      5-min Rain = 0
KFL1 100931Z 27002KT 03/M13 A2999 RMK A01 T00281130  RH  030%=      5-min Rain = 0
KFL1 100932Z 27002KT 03/M12 A2999 RMK A01 T00311124  RH  031%=      5-min Rain = 0
KFL1 100933Z 27002KT 03/M12 A2999 RMK A01 T00291124  RH  031%=      5-min Rain = 0
KFL1 100934Z 27002KT 03/M13 A2999 RMK A01 T00281131  RH  030%=      5-min Rain = 0
KFL1 100935Z 26002KT 03/M13 A2999 RMK A01 T00291130  RH  030%=      5-min Rain = 0
KFL1 100936Z 26002KT 03/M13 A2999 RMK A01 T00311126  RH  031%=      5-min Rain = 0
KFL1 100937Z 27002KT 03/M13 A2999 RMK A01 T00301131  RH  030%=      5-min Rain = 0
KFL1 100938Z 27002KT 03/M13 A2999 RMK A01 T00291134  RH  029%=      5-min Rain = 0
KFL1 100939Z 28002KT 03/M13 A2999 RMK A01 T00321129  RH  029%=      5-min Rain = 0
KFL1 100940Z 28002KT 03/M13 A2999 RMK A01 T00311133  RH  029%=      5-min Rain = 0
KFL1 100941Z 28002KT 03/M12 A2999 RMK A01 T00301124  RH  031%=      5-min Rain = 0
KFL1 100942Z 28002KT 03/M13 A2999 RMK A01 T00311129  RH  030%=      5-min Rain = 0
KFL1 100943Z 28002KT 03/M13 A2999 RMK A01 T00301132  RH  029%=      5-min Rain = 0
KFL1 100944Z 28002KT 03/M13 A2999 RMK A01 T00331133  RH  029%=      5-min Rain = 0
KFL1 100945Z 28002KT 03/M14 A2999 RMK A01 T00321136  RH  028%=      5-min Rain = 0
KFL1 100946Z 28002KT 03/M14 A2999 RMK A01 T00331138  RH  027%=      5-min Rain = 0
KFL1 100947Z 29002KT 03/M14 A2999 RMK A01 T00341135  RH  028%=      5-min Rain = 0
KFL1 100948Z 29002KT 03/M14 A2998 RMK A01 T00341136  RH  027%=      5-min Rain = 0
KFL1 100949Z 30002KT 03/M14 A2998 RMK A01 T00331140  RH  027%=      5-min Rain = 0
KFL1 100950Z 30002KT 03/M14 A2998 RMK A01 T00341136  RH  027%=      5-min Rain = 0
KFL1 100951Z 30003KT 03/M14 A2998 RMK A01 T00341139  RH  027%=      5-min Rain = 0
KFL1 100952Z 30003KT 03/M14 A2998 RMK A01 T00341137  RH  027%=      5-min Rain = 0
KFL1 100953Z 30003KT 03/M13 A2998 RMK A01 T00331131  RH  029%=      5-min Rain = 0
KFL1 100954Z 30004KT 03/M13 A2998 RMK A01 T00311132  RH  029%=      5-min Rain = 0
KFL1 100955Z 30004KT 03/M13 A2998 RMK A01 T00291131  RH  030%=      5-min Rain = 0
KFL1 100956Z 30005KT 03/M13 A2998 RMK A01 T00291130  RH  030%=      5-min Rain = 0
KFL1 100957Z 30005KT 03/M13 A2998 RMK A01 T00291131  RH  030%=      5-min Rain = 0
KFL1 100958Z 30004KT 03/M13 A2998 RMK A01 T00271132  RH  030%=      5-min Rain = 0
KFL1 100959Z 30004KT 03/M13 A2998 RMK A01 T00271129  RH  031%=      5-min Rain = 0
KFL1 101000Z 30004KT 03/M13 A2998 RMK A01 T00271129  RH  031%=      5-min Rain = 0
KFL1 101001Z 30005KT 03/M12 A2998 RMK A01 T00271124  RH  032%=      5-min Rain = 0
KFL1 101002Z 30005KT 03/M13 A2998 RMK A01 T00251131  RH  031%=      5-min Rain = 0
KFL1 101003Z 30005KT 03/M13 A2998 RMK A01 T00251131  RH  031%=      5-min Rain = 0
KFL1 101004Z 30006KT 03/M13 A2998 RMK A01 T00281129  RH  030%=      5-min Rain = 0
KFL1 101005Z 31006KT 03/M13 A2998 RMK A01 T00271129  RH  031%=      5-min Rain = 0
KFL1 101006Z 30006KT 03/M12 A2998 RMK A01 T00271124  RH  032%=      5-min Rain = 0
KFL1 101007Z 30005KT 03/M13 A2998 RMK A01 T00271126  RH  031%=      5-min Rain = 0
KFL1 101008Z 30006KT 03/M13 A2998 RMK A01 T00271126  RH  032%=      5-min Rain = 0
KFL1 101009Z 30005KT 03/M12 A2998 RMK A01 T00281123  RH  032%=      5-min Rain = 0
KFL1 101010Z 30006KT 03/M12 A2998 RMK A01 T00261124  RH  032%=      5-min Rain = 0
KFL1 101011Z 30005KT 03/M12 A2998 RMK A01 T00251123  RH  032%=      5-min Rain = 0
KFL1 101012Z 30005KT 03/M12 A2998 RMK A01 T00251124  RH  033%=      5-min Rain = 0
KFL1 101013Z 30004KT 03/M12 A2998 RMK A01 T00261123  RH  032%=      5-min Rain = 0
KFL1 101014Z 30004KT 03/M13 A2998 RMK A01 T00251125  RH  032%=      5-min Rain = 0
KFL1 101015Z 30004KT 02/M13 A2998 RMK A01 T00231129  RH  031%=      5-min Rain = 0
KFL1 101016Z 30004KT 03/M13 A2998 RMK A01 T00261129  RH  031%=      5-min Rain = 0
KFL1 101017Z 30003KT 03/M13 A2998 RMK A01 T00251130  RH  031%=      5-min Rain = 0
KFL1 101018Z 30003KT 02/M13 A2998 RMK A01 T00241126  RH  032%=      5-min Rain = 0
KFL1 101019Z 29003KT 02/M13 A2998 RMK A01 T00241127  RH  032%=      5-min Rain = 0
KFL1 101020Z 29003KT 02/M13 A2998 RMK A01 T00221130  RH  032%=      5-min Rain = 0
KFL1 101021Z 29003KT 02/M13 A2998 RMK A01 T00231131  RH  031%=      5-min Rain = 0
KFL1 101022Z 29003KT 02/M14 A2998 RMK A01 T00211138  RH  030%=      5-min Rain = 0
KFL1 101023Z 29003KT 02/M14 A2998 RMK A01 T00211141  RH  029%=      5-min Rain = 0
KFL1 101024Z 29003KT 02/M14 A2998 RMK A01 T00231141  RH  029%=      5-min Rain = 0
KFL1 101025Z 29003KT 02/M14 A2998 RMK A01 T00211144  RH  028%=      5-min Rain = 0
KFL1 101026Z 29003KT 02/M14 A2998 RMK A01 T00211144  RH  028%=      5-min Rain = 0
KFL1 101027Z 29003KT 02/M15 A2998 RMK A01 T00211145  RH  028%=      5-min Rain = 0
KFL1 101028Z 29003KT 02/M14 A2998 RMK A01 T00231143  RH  028%=      5-min Rain = 0
KFL1 101029Z 30004KT 02/M14 A2998 RMK A01 T00221144  RH  028%=      5-min Rain = 0
KFL1 101030Z 30004KT 02/M14 A2998 RMK A01 T00221143  RH  028%=      5-min Rain = 0
KFL1 101031Z 30005KT 02/M14 A2998 RMK A01 T00231141  RH  029%=      5-min Rain = 0
KFL1 101032Z 30005KT 02/M14 A2998 RMK A01 T00221140  RH  029%=      5-min Rain = 0
KFL1 101033Z 30005KT 03/M14 A2998 RMK A01 T00261136  RH  029%=      5-min Rain = 0
KFL1 101034Z 30005KT 02/M13 A2998 RMK A01 T00241131  RH  031%=      5-min Rain = 0
KFL1 101035Z 30005KT 02/M13 A2998 RMK A01 T00231129  RH  032%=      5-min Rain = 0
KFL1 101036Z 31005KT 02/M13 A2998 RMK A01 T00221129  RH  032%=      5-min Rain = 0
KFL1 101037Z 31005KT 02/M13 A2997 RMK A01 T00221131  RH  031%=      5-min Rain = 0
KFL1 101038Z 31006KT 02/M13 A2998 RMK A01 T00241132  RH  031%=      5-min Rain = 0
KFL1 101039Z 31005KT 02/M14 A2998 RMK A01 T00241136  RH  029%=      5-min Rain = 0
KFL1 101040Z 31006KT 03/M13 A2998 RMK A01 T00251132  RH  030%=      5-min Rain = 0
KFL1 101041Z 31006KT 03/M13 A2998 RMK A01 T00251133  RH  030%=      5-min Rain = 0
KFL1 101042Z 31006KT 03/M13 A2998 RMK A01 T00271134  RH  029%=      5-min Rain = 0
KFL1 101043Z 31006KT 03/M13 A2998 RMK A01 T00271134  RH  029%=      5-min Rain = 0
KFL1 101044Z 31006KT 03/M13 A2998 RMK A01 T00291134  RH  029%=      5-min Rain = 0
KFL1 101045Z 31006KT 03/M14 A2998 RMK A01 T00311137  RH  028%=      5-min Rain = 0
KFL1 101046Z 31006KT 03/M14 A2998 RMK A01 T00331137  RH  027%=      5-min Rain = 0
KFL1 101047Z 31005KT 03/M14 A2998 RMK A01 T00331141  RH  027%=      5-min Rain = 0
KFL1 101048Z 31006KT 03/M14 A2998 RMK A01 T00331138  RH  027%=      5-min Rain = 0
KFL1 101049Z 31006KT 03/M14 A2998 RMK A01 T00331139  RH  027%=      5-min Rain = 0
KFL1 101050Z 31006KT 03/M14 A2998 RMK A01 T00341141  RH  026%=      5-min Rain = 0
KFL1 101051Z 31006KT 03/M14 A2998 RMK A01 T00331139  RH  027%=      5-min Rain = 0
KFL1 101052Z 31006KT 03/M14 A2998 RMK A01 T00311139  RH  027%=      5-min Rain = 0
KFL1 101053Z 31005KT 03/M14 A2998 RMK A01 T00331135  RH  028%=      5-min Rain = 0
KFL1 101054Z 30005KT 03/M14 A2998 RMK A01 T00311137  RH  028%=      5-min Rain = 0
KFL1 101055Z 30005KT 03/M14 A2998 RMK A01 T00321138  RH  027%=      5-min Rain = 0
KFL1 101056Z 31006KT 03/M14 A2998 RMK A01 T00321141  RH  027%=      5-min Rain = 0
KFL1 101057Z 30006KT 04/M14 A2998 RMK A01 T00351137  RH  027%=      5-min Rain = 0
KFL1 101058Z 30006KT 03/M14 A2998 RMK A01 T00331139  RH  027%=      5-min Rain = 0
KFL1 101059Z 30006KT 03/M14 A2998 RMK A01 T00321137  RH  028%=      5-min Rain = 0
KFL1 101100Z 30006KT 03/M14 A2998 RMK A01 T00321136  RH  028%=      5-min Rain = 0
KFL1 101101Z 29006KT 03/M14 A2998 RMK A01 T00301138  RH  028%=      5-min Rain = 0
KFL1 101102Z 29006KT 03/M14 A2998 RMK A01 T00301141  RH  027%=      5-min Rain = 0
KFL1 101103Z 29007KT 03/M14 A2998 RMK A01 T00321139  RH  027%=      5-min Rain = 0
KFL1 101104Z 29007KT 03/M14 A2998 RMK A01 T00321136  RH  028%=      5-min Rain = 0
KFL1 101105Z 29007KT 03/M13 A2998 RMK A01 T00321132  RH  029%=      5-min Rain = 0
KFL1 101106Z 29006KT 03/M14 A2998 RMK A01 T00321136  RH  028%=      5-min Rain = 0
KFL1 101107Z 30006KT 03/M14 A2998 RMK A01 T00341136  RH  027%=      5-min Rain = 0
KFL1 101108Z 30006KT 04/M14 A2998 RMK A01 T00351138  RH  027%=      5-min Rain = 0
KFL1 101109Z 30006KT 04/M14 A2998 RMK A01 T00351139  RH  027%=      5-min Rain = 0
KFL1 101110Z 30005KT 04/M14 A2998 RMK A01 T00351138  RH  027%=      5-min Rain = 0
KFL1 101111Z 30006KT 04/M14 A2998 RMK A01 T00361135  RH  027%=      5-min Rain = 0
KFL1 101112Z 30006KT 03/M14 A2998 RMK A01 T00331138  RH  027%=      5-min Rain = 0
KFL1 101113Z 31006KT 03/M14 A2998 RMK A01 T00331138  RH  027%=      5-min Rain = 0
KFL1 101114Z 31006KT 03/M14 A2998 RMK A01 T00331136  RH  028%=      5-min Rain = 0
KFL1 101115Z 31006KT 03/M14 A2998 RMK A01 T00321138  RH  028%=      5-min Rain = 0
KFL1 101116Z 31006KT 03/M14 A2998 RMK A01 T00341139  RH  027%=      5-min Rain = 0
KFL1 101117Z 31006KT 03/M14 A2998 RMK A01 T00341139  RH  027%=      5-min Rain = 0
KFL1 101118Z 31006KT 03/M14 A2998 RMK A01 T00341139  RH  027%=      5-min Rain = 0
KFL1 101119Z 31006KT 04/M14 A2998 RMK A01 T00351140  RH  027%=      5-min Rain = 0
KFL1 101120Z 31006KT 03/M14 A2998 RMK A01 T00341143  RH  026%=      5-min Rain = 0
KFL1 101121Z 31006KT 03/M14 A2998 RMK A01 T00341141  RH  026%=      5-min Rain = 0
KFL1 101122Z 31006KT 03/M14 A2998 RMK A01 T00331140  RH  027%=      5-min Rain = 0
KFL1 101123Z 31007KT 03/M14 A2998 RMK A01 T00321138  RH  027%=      5-min Rain = 0
KFL1 101124Z 30006KT 03/M14 A2998 RMK A01 T00301142  RH  027%=      5-min Rain = 0
KFL1 101125Z 30007KT 03/M14 A2998 RMK A01 T00311144  RH  026%=      5-min Rain = 0
KFL1 101126Z 30006KT 03/M14 A2998 RMK A01 T00341142  RH  026%=      5-min Rain = 0
KFL1 101127Z 30006KT 03/M14 A2998 RMK A01 T00331143  RH  026%=      5-min Rain = 0
KFL1 101128Z 29005KT 03/M14 A2998 RMK A01 T00341140  RH  026%=      5-min Rain = 0
KFL1 101129Z 29006KT 03/M14 A2998 RMK A01 T00331142  RH  027%=      5-min Rain = 0
KFL1 101130Z 29005KT 03/M14 A2998 RMK A01 T00341141  RH  027%=      5-min Rain = 0
KFL1 101131Z 29005KT 03/M14 A2998 RMK A01 T00311143  RH  027%=      5-min Rain = 0
KFL1 101132Z 29004KT 03/M14 A2998 RMK A01 T00281140  RH  028%=      5-min Rain = 0
KFL1 101133Z 29004KT 03/M14 A2999 RMK A01 T00271142  RH  028%=      5-min Rain = 0
KFL1 101134Z 29005KT 03/M14 A2999 RMK A01 T00271142  RH  028%=      5-min Rain = 0
KFL1 101135Z 29005KT 02/M14 A2999 RMK A01 T00231141  RH  029%=      5-min Rain = 0
KFL1 101136Z 28005KT 02/M14 A2999 RMK A01 T00241139  RH  029%=      5-min Rain = 0
KFL1 101137Z 29007KT 02/M14 A2999 RMK A01 T00221142  RH  028%=      5-min Rain = 0
KFL1 101138Z 29007KT 02/M14 A2999 RMK A01 T00231140  RH  029%=      5-min Rain = 0
KFL1 101139Z 29007KT 02/M14 A2999 RMK A01 T00221137  RH  030%=      5-min Rain = 0
KFL1 101140Z 28007KT 02/M13 A2999 RMK A01 T00221134  RH  030%=      5-min Rain = 0
KFL1 101141Z 29006KT 03/M13 A2999 RMK A01 T00271131  RH  030%=      5-min Rain = 0
KFL1 101142Z 28006KT 03/M13 A2999 RMK A01 T00261125  RH  032%=      5-min Rain = 0
KFL1 101143Z 28006KT 02/M13 A2999 RMK A01 T00241130  RH  031%=      5-min Rain = 0
KFL1 101144Z 28005KT 03/M13 A2999 RMK A01 T00251133  RH  030%=      5-min Rain = 0
KFL1 101145Z 27006KT 02/M13 A2999 RMK A01 T00231134  RH  030%=      5-min Rain = 0
KFL1 101146Z 27007KT 02/M14 A2999 RMK A01 T00221138  RH  030%=      5-min Rain = 0
KFL1 101147Z 27006KT 03/M14 A2999 RMK A01 T00251138  RH  029%=      5-min Rain = 0
KFL1 101148Z 27006KT 03/M14 A2999 RMK A01 T00261140  RH  028%=      5-min Rain = 0
KFL1 101149Z 27006KT 03/M14 A2999 RMK A01 T00281138  RH  028%=      5-min Rain = 0
KFL1 101150Z 27006KT 03/M14 A2999 RMK A01 T00311136  RH  028%=      5-min Rain = 0
KFL1 101151Z 27006KT 03/M14 A2999 RMK A01 T00291139  RH  028%=      5-min Rain = 0
KFL1 101152Z 27005KT 03/M14 A2999 RMK A01 T00321135  RH  028%=      5-min Rain = 0
KFL1 101153Z 26004KT 03/M14 A2999 RMK A01 T00291137  RH  028%=      5-min Rain = 0
KFL1 101154Z 26005KT 03/M14 A2999 RMK A01 T00291139  RH  028%=      5-min Rain = 0
KFL1 101155Z 26005KT 03/M14 A2999 RMK A01 T00291140  RH  028%=      5-min Rain = 0
KFL1 101156Z 26005KT 03/M14 A2999 RMK A01 T00291140  RH  027%=      5-min Rain = 0
KFL1 101157Z 26005KT 03/M15 A2999 RMK A01 T00271146  RH  027%=      5-min Rain = 0
KFL1 101158Z 27006KT 03/M15 A2999 RMK A01 T00281147  RH  026%=      5-min Rain = 0
KFL1 101159Z 27005KT 03/M14 A2999 RMK A01 T00311142  RH  027%=      5-min Rain = 0
KFL1 101200Z 28006KT 03/M14 A2999 RMK A01 T00291141  RH  027%=      5-min Rain = 0
KFL1 101201Z 28005KT 03/M14 A30 RMK A01 T00301135  RH  029%=      5-min Rain = 0
KFL1 101202Z 27005KT 03/M13 A2999 RMK A01 T00251134  RH  030%=      5-min Rain = 0
KFL1 101203Z 27006KT 03/M13 A30 RMK A01 T00261134  RH  030%=      5-min Rain = 0
KFL1 101204Z 27006KT 03/M14 A30 RMK A01 T00251139  RH  029%=      5-min Rain = 0
KFL1 101205Z 27005KT 03/M14 A30 RMK A01 T00261140  RH  028%=      5-min Rain = 0
KFL1 101206Z 27006KT 03/M14 A30 RMK A01 T00291137  RH  028%=      5-min Rain = 0
KFL1 101207Z 28006KT 03/M14 A30 RMK A01 T00271138  RH  029%=      5-min Rain = 0
KFL1 101208Z 28005KT 02/M14 A30 RMK A01 T00241137  RH  029%=      5-min Rain = 0
KFL1 101209Z 27005KT 02/M14 A30 RMK A01 T00241137  RH  029%=      5-min Rain = 0
KFL1 101210Z 28006KT 02/M14 A30 RMK A01 T00231137  RH  030%=      5-min Rain = 0
KFL1 101211Z 28006KT 02/M14 A30 RMK A01 T00221137  RH  030%=      5-min Rain = 0
KFL1 101212Z 28006KT 02/M14 A30 RMK A01 T00241136  RH  030%=      5-min Rain = 0
KFL1 101213Z 28006KT 02/M14 A30 RMK A01 T00231138  RH  029%=      5-min Rain = 0
KFL1 101214Z 28006KT 03/M13 A30 RMK A01 T00251133  RH  030%=      5-min Rain = 0
KFL1 101215Z 28006KT 02/M14 A30 RMK A01 T00231136  RH  030%=      5-min Rain = 0
KFL1 101216Z 28006KT 02/M14 A30 RMK A01 T00231138  RH  029%=      5-min Rain = 0
KFL1 101217Z 29006KT 03/M14 A30 RMK A01 T00251138  RH  029%=      5-min Rain = 0
KFL1 101218Z 29007KT 03/M14 A30 RMK A01 T00271137  RH  029%=      5-min Rain = 0
KFL1 101219Z 29006KT 03/M14 A30 RMK A01 T00261138  RH  029%=      5-min Rain = 0
KFL1 101220Z 29006KT 03/M14 A30 RMK A01 T00261137  RH  029%=      5-min Rain = 0
KFL1 101221Z 28006KT 03/M14 A30 RMK A01 T00261135  RH  029%=      5-min Rain = 0
KFL1 101222Z 28006KT 03/M14 A30 RMK A01 T00251136  RH  029%=      5-min Rain = 0
KFL1 101223Z 29006KT 03/M13 A30 RMK A01 T00271134  RH  029%=      5-min Rain = 0
KFL1 101224Z 29006KT 03/M14 A30 RMK A01 T00251137  RH  029%=      5-min Rain = 0
KFL1 101225Z 29006KT 03/M14 A30 RMK A01 T00291135  RH  029%=      5-min Rain = 0
KFL1 101226Z 28006KT 03/M14 A30 RMK A01 T00271136  RH  029%=      5-min Rain = 0
KFL1 101227Z 28007KT 03/M13 A30 RMK A01 T00261134  RH  030%=      5-min Rain = 0
KFL1 101228Z 28006KT 03/M14 A30 RMK A01 T00261135  RH  029%=      5-min Rain = 0
KFL1 101229Z 28006KT 03/M13 A30 RMK A01 T00271129  RH  031%=      5-min Rain = 0
KFL1 101230Z 28005KT 03/M13 A30 RMK A01 T00251126  RH  032%=      5-min Rain = 0
KFL1 101231Z 28006KT 02/M13 A30 RMK A01 T00231133  RH  031%=      5-min Rain = 0
KFL1 101232Z 29006KT 03/M13 A30 RMK A01 T00251133  RH  030%=      5-min Rain = 0
KFL1 101233Z 29006KT 03/M13 A30 RMK A01 T00251132  RH  030%=      5-min Rain = 0
KFL1 101234Z 30005KT 03/M13 A30 RMK A01 T00251131  RH  031%=      5-min Rain = 0
KFL1 101235Z 30006KT 03/M13 A30 RMK A01 T00251125  RH  032%=      5-min Rain = 0
KFL1 101236Z 30005KT 02/M13 A30 RMK A01 T00231131  RH  031%=      5-min Rain = 0
KFL1 101237Z 31005KT 02/M13 A30 RMK A01 T00241129  RH  031%=      5-min Rain = 0
KFL1 101238Z 30005KT 02/M13 A30 RMK A01 T00221126  RH  033%=      5-min Rain = 0
KFL1 101239Z 30005KT 02/M13 A30 RMK A01 T00201130  RH  032%=      5-min Rain = 0
KFL1 101240Z 30006KT 02/M13 A30 RMK A01 T00221133  RH  031%=      5-min Rain = 0
KFL1 101241Z 30006KT 03/M13 A30 RMK A01 T00261133  RH  030%=      5-min Rain = 0
KFL1 101242Z 30006KT 03/M14 A30 RMK A01 T00271135  RH  029%=      5-min Rain = 0
KFL1 101243Z 30006KT 03/M13 A30 RMK A01 T00271134  RH  029%=      5-min Rain = 0
KFL1 101244Z 30006KT 03/M13 A30 RMK A01 T00291128  RH  031%=      5-min Rain = 0
KFL1 101245Z 30006KT 03/M13 A30 RMK A01 T00271125  RH  032%=      5-min Rain = 0
KFL1 101246Z 30006KT 02/M12 A30 RMK A01 T00241122  RH  033%=      5-min Rain = 0
KFL1 101247Z 29005KT 02/M12 A30 RMK A01 T00231120  RH  034%=      5-min Rain = 0
KFL1 101248Z 29007KT 02/M12 A3001 RMK A01 T00221122  RH  033%=      5-min Rain = 0
KFL1 101249Z 30007KT 02/M12 A3001 RMK A01 T00241122  RH  033%=      5-min Rain = 0
KFL1 101250Z 29006KT 03/M12 A3001 RMK A01 T00251117  RH  034%=      5-min Rain = 0
KFL1 101251Z 30004KT 02/M12 A3001 RMK A01 T00241116  RH  035%=      5-min Rain = 0
KFL1 101252Z 29006KT 02/M12 A3001 RMK A01 T00241116  RH  035%=      5-min Rain = 0
KFL1 101253Z 29006KT 02/M11 A3001 RMK A01 T00241113  RH  036%=      5-min Rain = 0
KFL1 101254Z 29006KT 02/M12 A3001 RMK A01 T00241116  RH  035%=      5-min Rain = 0
KFL1 101255Z 29006KT 02/M12 A3001 RMK A01 T00241117  RH  034%=      5-min Rain = 0
KFL1 101256Z 29006KT 03/M12 A30 RMK A01 T00271116  RH  034%=      5-min Rain = 0
KFL1 101257Z 29007KT 03/M11 A30 RMK A01 T00281114  RH  035%=      5-min Rain = 0
KFL1 101258Z 28006KT 03/M12 A30 RMK A01 T00261115  RH  035%=      5-min Rain = 0
KFL1 101259Z 28006KT 03/M12 A3001 RMK A01 T00261117  RH  034%=      5-min Rain = 0
KFL1 101300Z 29007KT 03/M12 A3001 RMK A01 T00281120  RH  033%=      5-min Rain = 0
KFL1 101301Z 28006KT 03/M12 A3001 RMK A01 T00291120  RH  033%=      5-min Rain = 0
KFL1 101302Z 28007KT 03/M12 A3001 RMK A01 T00281119  RH  033%=      5-min Rain = 0
KFL1 101303Z 28007KT 03/M12 A3001 RMK A01 T00311117  RH  033%=      5-min Rain = 0
KFL1 101304Z 28007KT 03/M12 A3001 RMK A01 T00311117  RH  033%=      5-min Rain = 0
KFL1 101305Z 28007KT 03/M12 A3001 RMK A01 T00311118  RH  033%=      5-min Rain = 0
KFL1 101306Z 28008KT 04/M12 A3001 RMK A01 T00351117  RH  032%=      5-min Rain = 0
KFL1 101307Z 28007KT 03/M12 A3001 RMK A01 T00341119  RH  032%=      5-min Rain = 0
KFL1 101308Z 28007KT 04/M12 A3001 RMK A01 T00351116  RH  032%=      5-min Rain = 0
KFL1 101309Z 28006KT 04/M12 A3001 RMK A01 T00351117  RH  032%=      5-min Rain = 0
KFL1 101310Z 28007KT 03/M12 A3001 RMK A01 T00341117  RH  032%=      5-min Rain = 0
KFL1 101311Z 27007KT 03/M12 A3001 RMK A01 T00331117  RH  032%=      5-min Rain = 0
KFL1 101312Z 28009KT 03/M12 A3001 RMK A01 T00341116  RH  032%=      5-min Rain = 0
KFL1 101313Z 27007KT 03/M12 A3001 RMK A01 T00321117  RH  032%=      5-min Rain = 0
KFL1 101314Z 27007KT 03/M12 A3001 RMK A01 T00311115  RH  033%=      5-min Rain = 0
KFL1 101315Z 27008KT 03/M11 A3001 RMK A01 T00321114  RH  033%=      5-min Rain = 0
KFL1 101316Z 27008KT 03/M12 A3001 RMK A01 T00311117  RH  033%=      5-min Rain = 0
KFL1 101317Z 28008KT 03/M12 A3001 RMK A01 T00331115  RH  033%=      5-min Rain = 0
KFL1 101318Z 28008KT 03/M12 A3002 RMK A01 T00341115  RH  033%=      5-min Rain = 0
KFL1 101319Z 28007KT 03/M12 A3002 RMK A01 T00341115  RH  033%=      5-min Rain = 0
KFL1 101320Z 28008KT 04/M12 A3002 RMK A01 T00351115  RH  032%=      5-min Rain = 0
KFL1 101321Z 28007KT 03/M12 A3002 RMK A01 T00341116  RH  032%=      5-min Rain = 0
KFL1 101322Z 28008KT 03/M12 A3002 RMK A01 T00331118  RH  032%=      5-min Rain = 0
KFL1 101323Z 28007KT 03/M12 A3002 RMK A01 T00331117  RH  032%=      5-min Rain = 0
KFL1 101324Z 28007KT 03/M12 A3002 RMK A01 T00331117  RH  032%=      5-min Rain = 0
KFL1 101325Z 28007KT 03/M12 A3002 RMK A01 T00331118  RH  032%=      5-min Rain = 0
KFL1 101326Z 28008KT 03/M12 A3002 RMK A01 T00331118  RH  032%=      5-min Rain = 0
KFL1 101327Z 28007KT 03/M12 A3002 RMK A01 T00331120  RH  032%=      5-min Rain = 0
KFL1 101328Z 28009KT 04/M12 A3002 RMK A01 T00371119  RH  031%=      5-min Rain = 0
KFL1 101329Z 28009KT 04/M12 A3002 RMK A01 T00361119  RH  031%=      5-min Rain = 0
KFL1 101330Z 28010KT 04/M12 A3002 RMK A01 T00371117  RH  032%=      5-min Rain = 0
KFL1 101331Z 28008KT 04/M12 A3003 RMK A01 T00361120  RH  031%=      5-min Rain = 0
KFL1 101332Z 28007KT 04/M12 A3003 RMK A01 T00381119  RH  031%=      5-min Rain = 0
KFL1 101333Z 29008KT 04/M12 A3003 RMK A01 T00391118  RH  031%=      5-min Rain = 0
KFL1 101334Z 29008KT 04/M12 A3003 RMK A01 T00371121  RH  030%=      5-min Rain = 0
KFL1 101335Z 28007KT 04/M12 A3003 RMK A01 T00361118  RH  031%=      5-min Rain = 0
KFL1 101336Z 29007KT 04/M12 A3003 RMK A01 T00361120  RH  031%=      5-min Rain = 0
KFL1 101337Z 29008KT 04/M12 A3003 RMK A01 T00371117  RH  031%=      5-min Rain = 0
KFL1 101338Z 29008KT 04/M12 A3003 RMK A01 T00361119  RH  031%=      5-min Rain = 0
KFL1 101339Z 30007KT 04/M12 A3003 RMK A01 T00351121  RH  031%=      5-min Rain = 0
KFL1 101340Z 29008KT 04/M12 A3003 RMK A01 T00361118  RH  032%=      5-min Rain = 0
KFL1 101341Z 30007KT 03/M12 A3003 RMK A01 T00341115  RH  033%=      5-min Rain = 0
KFL1 101342Z 29007KT 03/M12 A3003 RMK A01 T00331116  RH  033%=      5-min Rain = 0
KFL1 101343Z 29007KT 03/M11 A3003 RMK A01 T00331114  RH  033%=      5-min Rain = 0
KFL1 101344Z 30009KT 03/M12 A3003 RMK A01 T00331115  RH  033%=      5-min Rain = 0
KFL1 101345Z 29007KT 03/M12 A3003 RMK A01 T00341115  RH  033%=      5-min Rain = 0
KFL1 101346Z 29008KT 03/M12 A3003 RMK A01 T00331117  RH  033%=      5-min Rain = 0
KFL1 101347Z 30007KT 03/M12 A3003 RMK A01 T00331118  RH  032%=      5-min Rain = 0
KFL1 101348Z 30008KT 03/M12 A3003 RMK A01 T00331117  RH  032%=      5-min Rain = 0
KFL1 101349Z 30007KT 04/M12 A3003 RMK A01 T00351118  RH  032%=      5-min Rain = 0
KFL1 101350Z 30009KT 04/M12 A3003 RMK A01 T00351119  RH  032%=      5-min Rain = 0
KFL1 101351Z 31009KT 03/M12 A3003 RMK A01 T00341120  RH  031%=      5-min Rain = 0
KFL1 101352Z 30010KT 04/M12 A3003 RMK A01 T00351121  RH  031%=      5-min Rain = 0
KFL1 101353Z 30009KT 04/M12 A3003 RMK A01 T00361117  RH  031%=      5-min Rain = 0
KFL1 101354Z 30011KT 04/M12 A3003 RMK A01 T00361118  RH  031%=      5-min Rain = 0
KFL1 101355Z 30011KT 04/M12 A3003 RMK A01 T00361121  RH  031%=      5-min Rain = 0
KFL1 101356Z 30009KT 04/M12 A3003 RMK A01 T00391118  RH  031%=      5-min Rain = 0
KFL1 101357Z 29008KT 04/M12 A3003 RMK A01 T00371118  RH  031%=      5-min Rain = 0
KFL1 101358Z 30009KT 04/M12 A3003 RMK A01 T00381116  RH  031%=      5-min Rain = 0
KFL1 101359Z 30009KT 04/M12 A3003 RMK A01 T00371118  RH  031%=      5-min Rain = 0
KFL1 101400Z 30007G12KT 04/M12 A3003 RMK A01 T00361119  RH  031%=      5-min Rain = 0
KFL1 101401Z 30009KT 04/M12 A3003 RMK A01 T00361121  RH  031%=      5-min Rain = 0
KFL1 101402Z 30009KT 04/M12 A3003 RMK A01 T00371121  RH  031%=      5-min Rain = 0
KFL1 101403Z 30007KT 04/M12 A3003 RMK A01 T00381117  RH  031%=      5-min Rain = 0
KFL1 101404Z 29006KT 04/M12 A3003 RMK A01 T00391115  RH  032%=      5-min Rain = 0
KFL1 101405Z 30006KT 04/M12 A3003 RMK A01 T00371115  RH  032%=      5-min Rain = 0
KFL1 101406Z 30007KT 04/M12 A3003 RMK A01 T00351120  RH  031%=      5-min Rain = 0
KFL1 101407Z 31007KT 04/M12 A3003 RMK A01 T00371120  RH  031%=      5-min Rain = 0
KFL1 101408Z 30007KT 04/M12 A3003 RMK A01 T00381119  RH  031%=      5-min Rain = 0
KFL1 101409Z 30009KT 04/M12 A3003 RMK A01 T00391120  RH  030%=      5-min Rain = 0
KFL1 101410Z 31007KT 04/M12 A3003 RMK A01 T00401121  RH  030%=      5-min Rain = 0
KFL1 101411Z 30008KT 04/M12 A3003 RMK A01 T00411119  RH  030%=      5-min Rain = 0
KFL1 101412Z 30009KT 04/M12 A3003 RMK A01 T00411121  RH  030%=      5-min Rain = 0
KFL1 101413Z 31009KT 04/M12 A3003 RMK A01 T00421119  RH  030%=      5-min Rain = 0
KFL1 101414Z 31008KT 04/M12 A3003 RMK A01 T00431118  RH  030%=      5-min Rain = 0
KFL1 101415Z 30008KT 04/M12 A3003 RMK A01 T00411120  RH  030%=      5-min Rain = 0
KFL1 101416Z 31008KT 04/M12 A3003 RMK A01 T00401118  RH  031%=      5-min Rain = 0
KFL1 101417Z 31009KT 04/M12 A3003 RMK A01 T00401119  RH  030%=      5-min Rain = 0
KFL1 101418Z 30010KT 04/M12 A3003 RMK A01 T00421119  RH  030%=      5-min Rain = 0
KFL1 101419Z 30009KT 04/M12 A3003 RMK A01 T00411119  RH  030%=      5-min Rain = 0
KFL1 101420Z 29008KT 04/M12 A3003 RMK A01 T00401120  RH  030%=      5-min Rain = 0
KFL1 101421Z 30009KT 04/M12 A3003 RMK A01 T00411117  RH  031%=      5-min Rain = 0
KFL1 101422Z 30011KT 04/M12 A3003 RMK A01 T00421118  RH  030%=      5-min Rain = 0
KFL1 101423Z 30011KT 04/M12 A3003 RMK A01 T00421119  RH  030%=      5-min Rain = 0
KFL1 101424Z 31011KT 04/M12 A3003 RMK A01 T00431119  RH  030%=      5-min Rain = 0
KFL1 101425Z 30009KT 05/M12 A3003 RMK A01 T00451116  RH  030%=      5-min Rain = 0
KFL1 101426Z 30009KT 04/M12 A3003 RMK A01 T00441116  RH  030%=      5-min Rain = 0
KFL1 101427Z 30009KT 05/M11 A3003 RMK A01 T00461113  RH  030%=      5-min Rain = 0
KFL1 101428Z 30009KT 05/M12 A3003 RMK A01 T00451117  RH  030%=      5-min Rain = 0
KFL1 101429Z 31010KT 05/M12 A3003 RMK A01 T00451116  RH  030%=      5-min Rain = 0
KFL1 101430Z 31011KT 05/M12 A3003 RMK A01 T00451116  RH  030%=      5-min Rain = 0
KFL1 101431Z 30010KT 05/M12 A3003 RMK A01 T00471115  RH  030%=      5-min Rain = 0
KFL1 101432Z 30007KT 05/M11 A3003 RMK A01 T00461114  RH  030%=      5-min Rain = 0
KFL1 101433Z 30010KT 05/M11 A3003 RMK A01 T00451112  RH  031%=      5-min Rain = 0
KFL1 101434Z 30010KT 05/M11 A3003 RMK A01 T00471110  RH  031%=      5-min Rain = 0
KFL1 101435Z 30009KT 05/M11 A3003 RMK A01 T00471113  RH  030%=      5-min Rain = 0
KFL1 101436Z 30009KT 05/M12 A3003 RMK A01 T00481116  RH  029%=      5-min Rain = 0
KFL1 101437Z 30007KT 05/M11 A3004 RMK A01 T00511112  RH  030%=      5-min Rain = 0
KFL1 101438Z 30008KT 05/M12 A3004 RMK A01 T00491115  RH  029%=      5-min Rain = 0
KFL1 101439Z 30009KT 05/M11 A3004 RMK A01 T00521113  RH  029%=      5-min Rain = 0
KFL1 101440Z 31011KT 05/M11 A3004 RMK A01 T00521113  RH  029%=      5-min Rain = 0
KFL1 101441Z 30010KT 05/M11 A3004 RMK A01 T00501114  RH  029%=      5-min Rain = 0
KFL1 101442Z 30009KT 05/M11 A3004 RMK A01 T00511114  RH  029%=      5-min Rain = 0
KFL1 101443Z 31008KT 05/M11 A3004 RMK A01 T00511114  RH  029%=      5-min Rain = 0
KFL1 101444Z 31010KT 05/M11 A3004 RMK A01 T00521111  RH  030%=      5-min Rain = 0
KFL1 101445Z 30007KT 05/M11 A3004 RMK A01 T00531111  RH  029%=      5-min Rain = 0
KFL1 101446Z 31009KT 05/M11 A3004 RMK A01 T00521111  RH  030%=      5-min Rain = 0
KFL1 101447Z 30009KT 05/M11 A3004 RMK A01 T00511111  RH  030%=      5-min Rain = 0
KFL1 101448Z 30009KT 05/M11 A3004 RMK A01 T00531110  RH  030%=      5-min Rain = 0
KFL1 101449Z 31010KT 05/M11 A3004 RMK A01 T00531112  RH  029%=      5-min Rain = 0
KFL1 101450Z 30009KT 05/M11 A3004 RMK A01 T00531111  RH  029%=      5-min Rain = 0
KFL1 101451Z 29010KT 05/M11 A3004 RMK A01 T00531111  RH  030%=      5-min Rain = 0
KFL1 101452Z 29011KT 05/M11 A3004 RMK A01 T00541110  RH  030%=      5-min Rain = 0
KFL1 101453Z 30011KT 05/M11 A3004 RMK A01 T00541111  RH  029%=      5-min Rain = 0
KFL1 101454Z 29010KT 05/M11 A3004 RMK A01 T00541112  RH  029%=      5-min Rain = 0
KFL1 101455Z 29009KT 06/M11 A3004 RMK A01 T00561111  RH  029%=      5-min Rain = 0
KFL1 101456Z 29009KT 06/M11 A3004 RMK A01 T00551110  RH  029%=      5-min Rain = 0
KFL1 101457Z 29010KT 05/M11 A3004 RMK A01 T00541109  RH  030%=      5-min Rain = 0
KFL1 101458Z 30010KT 05/M11 A3004 RMK A01 T00541112  RH  029%=      5-min Rain = 0
KFL1 101459Z 30010KT 05/M11 A3004 RMK A01 T00541111  RH  029%=      5-min Rain = 0
KFL1 101500Z 29009KT 05/M11 A3004 RMK A01 T00541111  RH  029%=      5-min Rain = 0
KFL1 101501Z 30010KT 06/M11 A3004 RMK A01 T00551109  RH  030%=      5-min Rain = 0
KFL1 101502Z 29009KT 06/M11 A3004 RMK A01 T00551111  RH  029%=      5-min Rain = 0
KFL1 101503Z 29010KT 05/M11 A3004 RMK A01 T00541113  RH  029%=      5-min Rain = 0
KFL1 101504Z 29013KT 06/M11 A3004 RMK A01 T00551114  RH  029%=      5-min Rain = 0
KFL1 101505Z 29012KT 05/M12 A3004 RMK A01 T00541115  RH  028%=      5-min Rain = 0
KFL1 101506Z 30013KT 05/M12 A3004 RMK A01 T00531116  RH  028%=      5-min Rain = 0
KFL1 101507Z 30012KT 06/M11 A3004 RMK A01 T00551112  RH  029%=      5-min Rain = 0
KFL1 101508Z 30010KT 06/M11 A3004 RMK A01 T00551111  RH  029%=      5-min Rain = 0
KFL1 101509Z 30009KT 06/M11 A3005 RMK A01 T00551108  RH  030%=      5-min Rain = 0
KFL1 101510Z 28008KT 06/M11 A3005 RMK A01 T00561108  RH  030%=      5-min Rain = 0
KFL1 101511Z 30011KT 06/M11 A3005 RMK A01 T00551110  RH  029%=      5-min Rain = 0
KFL1 101512Z 30010KT 06/M11 A3005 RMK A01 T00551111  RH  029%=      5-min Rain = 0
KFL1 101513Z 29013KT 06/M11 A3005 RMK A01 T00551114  RH  029%=      5-min Rain = 0
KFL1 101514Z 29013KT 06/M11 A3005 RMK A01 T00561110  RH  029%=      5-min Rain = 0
KFL1 101515Z 30011KT 06/M11 A3005 RMK A01 T00551110  RH  029%=      5-min Rain = 0
KFL1 101516Z 30013KT 06/M11 A3005 RMK A01 T00551114  RH  029%=      5-min Rain = 0
KFL1 101517Z 30009KT 06/M11 A3005 RMK A01 T00561114  RH  028%=      5-min Rain = 0
KFL1 101518Z 29009KT 06/M11 A3005 RMK A01 T00571109  RH  029%=      5-min Rain = 0
KFL1 101519Z 29011KT 06/M11 A3005 RMK A01 T00571109  RH  029%=      5-min Rain = 0
KFL1 101520Z 29010KT 06/M11 A3005 RMK A01 T00581111  RH  029%=      5-min Rain = 0
KFL1 101521Z 29012KT 06/M11 A3005 RMK A01 T00581110  RH  029%=      5-min Rain = 0
KFL1 101522Z 29013KT 06/M11 A3005 RMK A01 T00581112  RH  028%=      5-min Rain = 0
KFL1 101523Z 30014KT 06/M11 A3005 RMK A01 T00591111  RH  028%=      5-min Rain = 0
KFL1 101524Z 30012KT 06/M11 A3005 RMK A01 T00581112  RH  028%=      5-min Rain = 0
KFL1 101525Z 30010KT 06/M11 A3005 RMK A01 T00601109  RH  029%=      5-min Rain = 0
KFL1 101526Z 30010KT 06/M11 A3006 RMK A01 T00601109  RH  029%=      5-min Rain = 0
KFL1 101527Z 30013KT 06/M11 A3006 RMK A01 T00611109  RH  028%=      5-min Rain = 0
KFL1 101528Z 29012KT 06/M11 A3006 RMK A01 T00601110  RH  028%=      5-min Rain = 0
KFL1 101529Z 29011KT 06/M11 A3006 RMK A01 T00601110  RH  028%=      5-min Rain = 0
KFL1 101530Z 29013KT 06/M11 A3006 RMK A01 T00611110  RH  028%=      5-min Rain = 0
KFL1 101531Z 29010KT 06/M11 A3006 RMK A01 T00601114  RH  028%=      5-min Rain = 0
KFL1 101532Z 29010KT 06/M11 A3006 RMK A01 T00591114  RH  028%=      5-min Rain = 0
KFL1 101533Z 29009KT 06/M11 A3006 RMK A01 T00601110  RH  028%=      5-min Rain = 0
KFL1 101534Z 29008KT 06/M11 A3006 RMK A01 T00621108  RH  028%=      5-min Rain = 0
KFL1 101535Z 30009KT 06/M11 A3006 RMK A01 T00621110  RH  028%=      5-min Rain = 0
KFL1 101536Z 30012KT 06/M11 A3006 RMK A01 T00641109  RH  028%=      5-min Rain = 0
KFL1 101537Z 30010KT 06/M11 A3006 RMK A01 T00631112  RH  027%=      5-min Rain = 0
KFL1 101538Z 29010KT 06/M11 A3006 RMK A01 T00621112  RH  027%=      5-min Rain = 0
KFL1 101539Z 29010KT 06/M11 A3006 RMK A01 T00631109  RH  028%=      5-min Rain = 0
KFL1 101540Z 29010KT 06/M11 A3006 RMK A01 T00621113  RH  027%=      5-min Rain = 0
KFL1 101541Z 30009KT 06/M11 A3006 RMK A01 T00611112  RH  028%=      5-min Rain = 0
KFL1 101542Z 29009KT 06/M11 A3006 RMK A01 T00631107  RH  028%=      5-min Rain = 0
KFL1 101543Z 29011KT 06/M11 A3006 RMK A01 T00641108  RH  028%=      5-min Rain = 0
KFL1 101544Z 30016KT 06/M11 A3006 RMK A01 T00631113  RH  027%=      5-min Rain = 0
KFL1 101545Z 30014KT 06/M12 A3006 RMK A01 T00631116  RH  026%=      5-min Rain = 0
KFL1 101546Z 30013KT 06/M12 A3006 RMK A01 T00611116  RH  027%=      5-min Rain = 0
KFL1 101547Z 29012KT 06/M11 A3006 RMK A01 T00611114  RH  027%=      5-min Rain = 0
KFL1 101548Z 30011KT 06/M11 A3006 RMK A01 T00611114  RH  027%=      5-min Rain = 0
KFL1 101549Z 31013KT 06/M11 A3006 RMK A01 T00621112  RH  028%=      5-min Rain = 0
KFL1 101550Z 30013KT 06/M11 A3006 RMK A01 T00641109  RH  028%=      5-min Rain = 0
KFL1 101551Z 30012KT 06/M11 A3006 RMK A01 T00641109  RH  028%=      5-min Rain = 0
KFL1 101552Z 30014KT 07/M11 A3006 RMK A01 T00651110  RH  027%=      5-min Rain = 0
KFL1 101553Z 30013KT 06/M11 A3006 RMK A01 T00641112  RH  027%=      5-min Rain = 0
KFL1 101554Z 29014KT 07/M11 A3006 RMK A01 T00651111  RH  027%=      5-min Rain = 0
KFL1 101555Z 30011KT 06/M11 A3006 RMK A01 T00641112  RH  027%=      5-min Rain = 0
KFL1 101556Z 29012KT 06/M11 A3006 RMK A01 T00621112  RH  027%=      5-min Rain = 0
KFL1 101557Z 28011KT 06/M11 A3006 RMK A01 T00621113  RH  027%=      5-min Rain = 0
KFL1 101558Z 28012KT 06/M11 A3006 RMK A01 T00621111  RH  028%=      5-min Rain = 0
KFL1 101559Z 28011KT 06/M11 A3007 RMK A01 T00631112  RH  027%=      5-min Rain = 0
KFL1 101600Z 28010KT 06/M11 A3007 RMK A01 T00621113  RH  027%=      5-min Rain = 0
KFL1 101601Z 29012KT 06/M11 A3007 RMK A01 T00631108  RH  028%=      5-min Rain = 0
KFL1 101602Z 29011KT 07/M11 A3007 RMK A01 T00651106  RH  028%=      5-min Rain = 0
KFL1 101603Z 30012KT 07/M11 A3007 RMK A01 T00651108  RH  028%=      5-min Rain = 0
KFL1 101604Z 30011KT 07/M11 A3007 RMK A01 T00661108  RH  028%=      5-min Rain = 0
KFL1 101605Z 30013KT 07/M11 A3007 RMK A01 T00651110  RH  027%=      5-min Rain = 0
KFL1 101606Z 30012KT 07/M11 A3007 RMK A01 T00661108  RH  028%=      5-min Rain = 0
KFL1 101607Z 30011KT 07/M11 A3007 RMK A01 T00671109  RH  027%=      5-min Rain = 0
KFL1 101608Z 29010KT 07/M11 A3007 RMK A01 T00681107  RH  028%=      5-min Rain = 0
KFL1 101609Z 29012KT 07/M10 A3007 RMK A01 T00691104  RH  028%=      5-min Rain = 0
KFL1 101610Z 30014KT 07/M10 A3007 RMK A01 T00711103  RH  028%=      5-min Rain = 0
KFL1 101611Z 30011KT 07/M11 A3007 RMK A01 T00721105  RH  027%=      5-min Rain = 0
KFL1 101612Z 30010KT 07/M11 A3007 RMK A01 T00721105  RH  027%=      5-min Rain = 0
KFL1 101613Z 29011KT 07/M10 A3007 RMK A01 T00721104  RH  027%=      5-min Rain = 0
KFL1 101614Z 30012KT 07/M11 A3007 RMK A01 T00721107  RH  027%=      5-min Rain = 0
KFL1 101615Z 30012KT 07/M11 A3007 RMK A01 T00721107  RH  027%=      5-min Rain = 0
KFL1 101616Z 28012KT 07/M11 A3007 RMK A01 T00721105  RH  027%=      5-min Rain = 0
KFL1 101617Z 29012KT 07/M11 A3007 RMK A01 T00721109  RH  026%=      5-min Rain = 0
KFL1 101618Z 29012KT 07/M11 A3007 RMK A01 T00691113  RH  026%=      5-min Rain = 0
KFL1 101619Z 29012KT 07/M11 A3007 RMK A01 T00691111  RH  026%=      5-min Rain = 0
KFL1 101620Z 30011KT 07/M11 A3007 RMK A01 T00701107  RH  027%=      5-min Rain = 0
KFL1 101621Z 30010KT 07/M11 A3007 RMK A01 T00711109  RH  026%=      5-min Rain = 0
KFL1 101622Z 30010KT 07/M11 A3007 RMK A01 T00711110  RH  026%=      5-min Rain = 0
KFL1 101623Z 29010KT 07/M11 A3007 RMK A01 T00731108  RH  026%=      5-min Rain = 0
KFL1 101624Z 29012KT 07/M11 A3007 RMK A01 T00741108  RH  026%=      5-min Rain = 0
KFL1 101625Z 29012KT 07/M11 A3007 RMK A01 T00741110  RH  026%=      5-min Rain = 0
KFL1 101626Z 30015KT 07/M11 A3007 RMK A01 T00741113  RH  025%=      5-min Rain = 0
KFL1 101627Z 30012KT 07/M12 A3007 RMK A01 T00721116  RH  025%=      5-min Rain = 0
KFL1 101628Z 29011KT 07/M11 A3007 RMK A01 T00731111  RH  026%=      5-min Rain = 0
KFL1 101629Z 30014KT 07/M11 A3007 RMK A01 T00741107  RH  026%=      5-min Rain = 0
KFL1 101630Z 29014KT 08/M11 A3007 RMK A01 T00761109  RH  026%=      5-min Rain = 0
KFL1 101631Z 29013KT 08/M11 A3007 RMK A01 T00781107  RH  026%=      5-min Rain = 0
KFL1 101632Z 30014KT 08/M11 A3007 RMK A01 T00771109  RH  025%=      5-min Rain = 0
KFL1 101633Z 29013KT 08/M11 A3007 RMK A01 T00771112  RH  025%=      5-min Rain = 0
KFL1 101634Z 29013KT 08/M11 A3007 RMK A01 T00761113  RH  025%=      5-min Rain = 0
KFL1 101635Z 29013KT 08/M11 A3007 RMK A01 T00761112  RH  025%=      5-min Rain = 0
KFL1 101636Z 30014KT 08/M11 A3006 RMK A01 T00751114  RH  025%=      5-min Rain = 0
KFL1 101637Z 29012KT 08/M11 A3007 RMK A01 T00781109  RH  025%=      5-min Rain = 0
KFL1 101638Z 29012KT 08/M11 A3007 RMK A01 T00771112  RH  025%=      5-min Rain = 0
KFL1 101639Z 30011KT 08/M12 A3007 RMK A01 T00761115  RH  024%=      5-min Rain = 0
KFL1 101640Z 30010KT 08/M11 A3007 RMK A01 T00771113  RH  025%=      5-min Rain = 0
KFL1 101641Z 29009KT 08/M11 A3007 RMK A01 T00791110  RH  025%=      5-min Rain = 0
KFL1 101642Z 29009KT 08/M10 A3007 RMK A01 T00821102  RH  026%=      5-min Rain = 0
KFL1 101643Z 30009KT 09/M10 A3007 RMK A01 T00871103  RH  025%=      5-min Rain = 0
KFL1 101644Z 29008KT 09/M11 A3007 RMK A01 T00871110  RH  024%=      5-min Rain = 0
KFL1 101645Z 29008KT 09/M11 A3007 RMK A01 T00871108  RH  024%=      5-min Rain = 0
KFL1 101646Z 29009KT 09/M11 A3006 RMK A01 T00881105  RH  024%=      5-min Rain = 0
KFL1 101647Z 29009KT 09/M11 A3006 RMK A01 T00881108  RH  024%=      5-min Rain = 0
KFL1 101648Z 30010KT 09/M11 A3006 RMK A01 T00861109  RH  024%=      5-min Rain = 0
KFL1 101649Z 28011KT 09/M11 A3006 RMK A01 T00861111  RH  024%=      5-min Rain = 0
KFL1 101650Z 28012KT 09/M11 A3007 RMK A01 T00851112  RH  024%=      5-min Rain = 0
KFL1 101651Z 27011KT 08/M11 A3007 RMK A01 T00821113  RH  024%=      5-min Rain = 0
KFL1 101652Z 27009KT 08/M11 A3007 RMK A01 T00811112  RH  024%=      5-min Rain = 0
KFL1 101653Z 29008KT 08/M11 A3007 RMK A01 T00841107  RH  025%=      5-min Rain = 0
KFL1 101654Z 29011KT 09/M11 A3007 RMK A01 T00851107  RH  024%=      5-min Rain = 0
KFL1 101655Z 29011KT 09/M11 A3007 RMK A01 T00881106  RH  024%=      5-min Rain = 0
KFL1 101656Z 31008KT 09/M11 A3007 RMK A01 T00881108  RH  024%=      5-min Rain = 0
KFL1 101657Z 29010KT 09/M11 A3007 RMK A01 T00891107  RH  024%=      5-min Rain = 0
KFL1 101658Z 29011KT 09/M11 A3007 RMK A01 T00901105  RH  024%=      5-min Rain = 0
KFL1 101659Z 29009KT 09/M10 A3007 RMK A01 T00931104  RH  024%=      5-min Rain = 0
KFL1 101700Z 29008KT 09/M11 A3007 RMK A01 T00911108  RH  023%=      5-min Rain = 0
KFL1 101701Z 29012KT 09/M10 A3006 RMK A01 T00911104  RH  024%=      5-min Rain = 0
KFL1 101702Z 29013KT 09/M11 A3007 RMK A01 T00911105  RH  024%=      5-min Rain = 0
KFL1 101703Z 30011KT 09/M11 A3006 RMK A01 T00921107  RH  023%=      5-min Rain = 0
KFL1 101704Z 30012KT 09/M11 A3006 RMK A01 T00911109  RH  023%=      5-min Rain = 0
KFL1 101705Z 29011KT 09/M11 A3006 RMK A01 T00921107  RH  023%=      5-min Rain = 0
KFL1 101706Z 29009G14KT 09/M11 A3006 RMK A01 T00941105  RH  023%=      5-min Rain = 0
KFL1 101707Z 29010KT 09/M11 A3006 RMK A01 T00941107  RH  023%=      5-min Rain = 0
KFL1 101708Z 28011KT 10/M11 A3007 RMK A01 T00951107  RH  023%=      5-min Rain = 0
KFL1 101709Z 28009KT 09/M11 A3007 RMK A01 T00941107  RH  023%=      5-min Rain = 0
KFL1 101710Z 29010KT 09/M11 A3007 RMK A01 T00931107  RH  023%=      5-min Rain = 0
KFL1 101711Z 29009KT 09/M11 A3006 RMK A01 T00931108  RH  023%=      5-min Rain = 0
KFL1 101712Z 28008KT 09/M11 A3006 RMK A01 T00941108  RH  023%=      5-min Rain = 0
KFL1 101713Z 28010KT 09/M11 A3006 RMK A01 T00941107  RH  023%=      5-min Rain = 0
KFL1 101714Z 26013KT 10/M11 A3006 RMK A01 T00971106  RH  023%=      5-min Rain = 0
KFL1 101715Z 28017KT 10/M11 A3006 RMK A01 T00961106  RH  023%=      5-min Rain = 0
KFL1 101716Z 27013KT 10/M11 A3006 RMK A01 T00951109  RH  022%=      5-min Rain = 0
KFL1 101717Z 30009KT 10/M11 A3006 RMK A01 T00951111  RH  022%=      5-min Rain = 0
KFL1 101718Z 30008KT 10/M11 A3006 RMK A01 T00961106  RH  023%=      5-min Rain = 0
KFL1 101719Z 28010KT 10/M10 A3006 RMK A01 T01001104  RH  023%=      5-min Rain = 0
KFL1 101720Z 27009KT 10/M10 A3006 RMK A01 T01011104  RH  023%=      5-min Rain = 0
KFL1 101721Z 28006KT 10/M11 A3006 RMK A01 T00981109  RH  022%=      5-min Rain = 0
KFL1 101722Z 28007KT 10/M11 A3006 RMK A01 T00971111  RH  022%=      5-min Rain = 0
KFL1 101723Z 27008KT 10/M11 A3006 RMK A01 T00981107  RH  022%=      5-min Rain = 0
KFL1 101724Z 27008KT 10/M10 A3006 RMK A01 T01011102  RH  023%=      5-min Rain = 0
KFL1 101725Z 26010KT 10/M11 A3006 RMK A01 T01041106  RH  022%=      5-min Rain = 0
KFL1 101726Z 27011KT 10/M11 A3006 RMK A01 T01021109  RH  021%=      5-min Rain = 0
KFL1 101727Z 29012KT 10/M11 A3006 RMK A01 T01011108  RH  022%=      5-min Rain = 0
KFL1 101728Z 31014KT 10/M11 A3006 RMK A01 T01011108  RH  022%=      5-min Rain = 0
KFL1 101729Z 31012G17KT 10/M11 A3006 RMK A01 T01031106  RH  022%=      5-min Rain = 0
KFL1 101730Z 28012KT 10/M11 A3006 RMK A01 T01041106  RH  022%=      5-min Rain = 0
KFL1 101731Z 32009KT 10/M11 A3006 RMK A01 T01041107  RH  022%=      5-min Rain = 0
KFL1 101732Z 31010KT 10/M11 A3006 RMK A01 T01041106  RH  022%=      5-min Rain = 0
KFL1 101733Z 31007KT 10/M11 A3006 RMK A01 T01031111  RH  021%=      5-min Rain = 0
KFL1 101734Z 29008KT 10/M11 A3006 RMK A01 T01021111  RH  021%=      5-min Rain = 0
KFL1 101735Z 28008G17KT 10/M11 A3006 RMK A01 T01021108  RH  022%=      5-min Rain = 0
KFL1 101736Z 27014KT 10/M11 A3006 RMK A01 T01031110  RH  021%=      5-min Rain = 0
KFL1 101737Z 29014KT 10/M11 A3006 RMK A01 T01041110  RH  021%=      5-min Rain = 0
KFL1 101738Z 28015KT 11/M10 A3006 RMK A01 T01081102  RH  022%=      5-min Rain = 0
KFL1 101739Z 28013KT 11/M11 A3006 RMK A01 T01071110  RH  021%=      5-min Rain = 0
KFL1 101740Z 28012KT 11/M11 A3006 RMK A01 T01061110  RH  021%=      5-min Rain = 0
KFL1 101741Z 28011KT 11/M11 A3006 RMK A01 T01061112  RH  020%=      5-min Rain = 0
KFL1 101742Z 27010KT 11/M11 A3006 RMK A01 T01081107  RH  021%=      5-min Rain = 0
KFL1 101743Z 27010KT 11/M11 A3006 RMK A01 T01061113  RH  020%=      5-min Rain = 0
KFL1 101744Z 27012G17KT 10/M11 A3006 RMK A01 T01021113  RH  021%=      5-min Rain = 0
KFL1 101745Z 28014KT 10/M11 A3006 RMK A01 T01021110  RH  021%=      5-min Rain = 0
KFL1 101746Z 28011KT 10/M11 A3006 RMK A01 T00981113  RH  021%=      5-min Rain = 0
KFL1 101747Z 30013KT 10/M11 A3006 RMK A01 T00961114  RH  021%=      5-min Rain = 0
KFL1 101748Z 31011KT 10/M11 A3006 RMK A01 T00971113  RH  022%=      5-min Rain = 0
KFL1 101749Z 29011KT 10/M11 A3006 RMK A01 T00961114  RH  021%=      5-min Rain = 0
KFL1 101750Z 28013KT 10/M11 A3006 RMK A01 T00961113  RH  022%=      5-min Rain = 0
KFL1 101751Z 28013KT 10/M11 A3006 RMK A01 T00981113  RH  021%=      5-min Rain = 0
KFL1 101752Z 29016KT 10/M11 A3006 RMK A01 T00971114  RH  021%=      5-min Rain = 0
KFL1 101753Z 30015KT 10/M11 A3006 RMK A01 T00981113  RH  021%=      5-min Rain = 0
KFL1 101754Z 30015KT 10/M11 A3006 RMK A01 T01001112  RH  021%=      5-min Rain = 0
KFL1 101755Z 30013KT 10/M11 A3006 RMK A01 T01001112  RH  021%=      5-min Rain = 0
KFL1 101756Z 30011G16KT 10/M12 A3006 RMK A01 T00951115  RH  021%=      5-min Rain = 0
KFL1 101757Z 30015KT 10/M11 A3006 RMK A01 T00951112  RH  022%=      5-min Rain = 0
KFL1 101758Z 29012KT 10/M12 A3006 RMK A01 T00951115  RH  021%=      5-min Rain = 0
KFL1 101759Z 31009KT 10/M11 A3006 RMK A01 T00951114  RH  022%=      5-min Rain = 0
KFL1 101800Z 30012KT 10/M11 A3006 RMK A01 T00971111  RH  022%=      5-min Rain = 0
KFL1 101801Z 30013KT 10/M11 A3006 RMK A01 T00971113  RH  022%=      5-min Rain = 0
KFL1 101802Z 30013KT 10/M11 A3006 RMK A01 T00981110  RH  022%=      5-min Rain = 0
KFL1 101803Z 29014KT 10/M11 A3006 RMK A01 T00991109  RH  022%=      5-min Rain = 0
KFL1 101804Z 29012KT 10/M11 A3006 RMK A01 T01001108  RH  022%=      5-min Rain = 0
KFL1 101805Z 27010KT 10/M10 A3006 RMK A01 T01041103  RH  022%=      5-min Rain = 0
KFL1 101806Z 29009KT 10/M11 A3006 RMK A01 T01041107  RH  022%=      5-min Rain = 0
KFL1 101807Z 30010KT 11/M11 A3006 RMK A01 T01051107  RH  021%=      5-min Rain = 0
KFL1 101808Z 33012KT 11/M11 A3006 RMK A01 T01071106  RH  021%=      5-min Rain = 0
KFL1 101809Z 29009KT 11/M11 A3006 RMK A01 T01091105  RH  021%=      5-min Rain = 0
KFL1 101810Z 29011KT 11/M11 A3006 RMK A01 T01101106  RH  021%=      5-min Rain = 0
KFL1 101811Z 32012KT 11/M11 A3006 RMK A01 T01071110  RH  021%=      5-min Rain = 0
KFL1 101812Z 31014KT 11/M11 A3006 RMK A01 T01071109  RH  021%=      5-min Rain = 0
KFL1 101813Z 29013KT 11/M11 A3006 RMK A01 T01081108  RH  021%=      5-min Rain = 0
KFL1 101814Z 28009KT 11/M11 A3006 RMK A01 T01101107  RH  021%=      5-min Rain = 0
KFL1 101815Z 29010KT 11/M11 A3006 RMK A01 T01101105  RH  021%=      5-min Rain = 0
KFL1 101816Z 29015G20KT 11/M11 A3006 RMK A01 T01101105  RH  021%=      5-min Rain = 0
KFL1 101817Z 29011KT 11/M11 A3006 RMK A01 T01091112  RH  020%=      5-min Rain = 0
KFL1 101818Z 28010KT 10/M12 A3006 RMK A01 T01031115  RH  020%=      5-min Rain = 0
KFL1 101819Z 29011KT 10/M11 A3006 RMK A01 T01031110  RH  021%=      5-min Rain = 0
KFL1 101820Z 32010KT 11/M11 A3006 RMK A01 T01051109  RH  021%=      5-min Rain = 0
KFL1 101821Z 30008KT 11/M11 A3006 RMK A01 T01071107  RH  021%=      5-min Rain = 0
KFL1 101822Z 26007KT 11/M10 A3006 RMK A01 T01101104  RH  021%=      5-min Rain = 0
KFL1 101823Z 30008KT 11/M11 A3006 RMK A01 T01111106  RH  021%=      5-min Rain = 0
KFL1 101824Z 29012G17KT 11/M11 A3006 RMK A01 T01111107  RH  021%=      5-min Rain = 0
KFL1 101825Z 28011G16KT 11/M11 A3006 RMK A01 T01091107  RH  021%=      5-min Rain = 0
KFL1 101826Z 29008G13KT 11/M11 A3006 RMK A01 T01061110  RH  021%=      5-min Rain = 0
KFL1 101827Z 29009G15KT 10/M12 A3006 RMK A01 T01021116  RH  020%=      5-min Rain = 0
KFL1 101828Z 29011KT 10/M11 A3006 RMK A01 T01001111  RH  021%=      5-min Rain = 0
KFL1 101829Z 29011KT 10/M11 A3006 RMK A01 T01011107  RH  022%=      5-min Rain = 0
KFL1 101830Z 32011KT 11/M10 A3006 RMK A01 T01061102  RH  022%=      5-min Rain = 0
KFL1 101831Z 32011KT 11/M10 A3006 RMK A01 T01091104  RH  021%=      5-min Rain = 0
KFL1 101832Z 33012KT 11/M10 A3006 RMK A01 T01111102  RH  021%=      5-min Rain = 0
KFL1 101833Z 30011KT 11/M10 A3006 RMK A01 T01111102  RH  021%=      5-min Rain = 0
KFL1 101834Z 28013KT 11/M10 A3006 RMK A01 T01121104  RH  021%=      5-min Rain = 0
KFL1 101835Z 27011KT 11/M10 A3006 RMK A01 T01141102  RH  021%=      5-min Rain = 0
KFL1 101836Z 27011KT 11/M11 A3006 RMK A01 T01121106  RH  021%=      5-min Rain = 0
KFL1 101837Z 28011KT 11/M11 A3006 RMK A01 T01121110  RH  020%=      5-min Rain = 0
KFL1 101838Z 27011G16KT 11/M11 A3006 RMK A01 T01121105  RH  021%=      5-min Rain = 0
KFL1 101839Z 27013KT 11/M10 A3006 RMK A01 T01121104  RH  021%=      5-min Rain = 0
KFL1 101840Z 27010KT 11/M11 A3006 RMK A01 T01141106  RH  020%=      5-min Rain = 0
KFL1 101841Z 25012KT 11/M11 A3006 RMK A01 T01121106  RH  021%=      5-min Rain = 0
KFL1 101842Z 27015G20KT 11/M11 A3006 RMK A01 T01091108  RH  021%=      5-min Rain = 0
KFL1 101843Z 27016KT 11/M11 A3006 RMK A01 T01061108  RH  021%=      5-min Rain = 0
KFL1 101844Z 27016KT 11/M11 A3006 RMK A01 T01061106  RH  021%=      5-min Rain = 0
KFL1 101845Z 26013KT 11/M11 A3006 RMK A01 T01061108  RH  021%=      5-min Rain = 0
KFL1 101846Z 26012KT 11/M11 A3006 RMK A01 T01061106  RH  021%=      5-min Rain = 0
KFL1 101847Z 30006KT 11/M10 A3006 RMK A01 T01101102  RH  022%=      5-min Rain = 0
KFL1 101848Z 28009KT 11/M10 A3006 RMK A01 T01101100  RH  022%=      5-min Rain = 0
KFL1 101849Z 26009G14KT 11/M10 A3006 RMK A01 T01141100  RH  021%=      5-min Rain = 0
KFL1 101850Z 27014KT 11/M10 A3006 RMK A01 T01141103  RH  021%=      5-min Rain = 0
KFL1 101851Z 28007KT 11/M11 A3006 RMK A01 T01121107  RH  020%=      5-min Rain = 0
KFL1 101852Z 30009KT 11/M11 A3006 RMK A01 T01131106  RH  020%=      5-min Rain = 0
KFL1 101853Z 29008KT 11/M11 A3006 RMK A01 T01131105  RH  021%=      5-min Rain = 0
KFL1 101854Z 28011KT 11/M10 A3006 RMK A01 T01141102  RH  021%=      5-min Rain = 0
KFL1 101855Z 28009KT 11/M10 A3006 RMK A01 T01131102  RH  021%=      5-min Rain = 0
KFL1 101856Z 28014KT 11/M10 A3006 RMK A01 T01141102  RH  021%=      5-min Rain = 0
KFL1 101857Z 30015G20KT 12/M10 A3006 RMK A01 T01151104  RH  021%=      5-min Rain = 0
KFL1 101858Z 32014KT 11/M11 A3006 RMK A01 T01131112  RH  020%=      5-min Rain = 0
KFL1 101859Z 29012G17KT 11/M10 A3006 RMK A01 T01141103  RH  021%=      5-min Rain = 0
KFL1 101900Z 27012KT 11/M11 A3006 RMK A01 T01141105  RH  020%=      5-min Rain = 0
KFL1 101901Z 27012KT 11/M11 A3006 RMK A01 T01141105  RH  020%=      5-min Rain = 0
KFL1 101902Z 27014G20KT 11/M11 A3006 RMK A01 T01121105  RH  021%=      5-min Rain = 0
KFL1 101903Z 27019KT 11/M11 A3006 RMK A01 T01121106  RH  021%=      5-min Rain = 0
KFL1 101904Z 28015KT 11/M10 A3006 RMK A01 T01121104  RH  021%=      5-min Rain = 0
KFL1 101905Z 28012KT 11/M11 A3006 RMK A01 T01121106  RH  021%=      5-min Rain = 0
KFL1 101906Z 29010G15KT 11/M11 A3006 RMK A01 T01091110  RH  020%=      5-min Rain = 0
KFL1 101907Z 29017KT 11/M11 A3006 RMK A01 T01111105  RH  021%=      5-min Rain = 0
KFL1 101908Z 29018KT 11/M10 A3006 RMK A01 T01131102  RH  021%=      5-min Rain = 0
KFL1 101909Z 29018KT 11/M11 A3006 RMK A01 T01111105  RH  021%=      5-min Rain = 0
KFL1 101910Z 30013KT 11/M10 A3006 RMK A01 T01111104  RH  021%=      5-min Rain = 0
KFL1 101911Z 29011G16KT 11/M11 A3006 RMK A01 T01131105  RH  021%=      5-min Rain = 0
KFL1 101912Z 31012KT 11/M11 A3006 RMK A01 T01131108  RH  020%=      5-min Rain = 0
KFL1 101913Z 31015KT 11/M11 A3006 RMK A01 T01131106  RH  020%=      5-min Rain = 0
KFL1 101914Z 30012KT 11/M11 A3006 RMK A01 T01101105  RH  021%=      5-min Rain = 0
KFL1 101915Z 28010KT 11/M10 A3006 RMK A01 T01091103  RH  021%=      5-min Rain = 0
KFL1 101916Z 30013G18KT 11/M10 A3005 RMK A01 T01071103  RH  022%=      5-min Rain = 0
KFL1 101917Z 28015KT 11/M10 A3005 RMK A01 T01121096  RH  022%=      5-min Rain = 0
KFL1 101918Z 28017KT 11/M10 A3005 RMK A01 T01121104  RH  021%=      5-min Rain = 0
KFL1 101919Z 28013KT 11/M10 A3005 RMK A01 T01101103  RH  021%=      5-min Rain = 0
KFL1 101920Z 29014G19KT 11/M11 A3005 RMK A01 T01101105  RH  021%=      5-min Rain = 0
KFL1 101921Z 30015KT 11/M11 A3005 RMK A01 T01101107  RH  021%=      5-min Rain = 0
KFL1 101922Z 30013G18KT 11/M11 A3005 RMK A01 T01121107  RH  020%=      5-min Rain = 0
KFL1 101923Z 30016KT 11/M11 A3005 RMK A01 T01131108  RH  020%=      5-min Rain = 0
KFL1 101924Z 29016KT 11/M11 A3005 RMK A01 T01131109  RH  020%=      5-min Rain = 0
KFL1 101925Z 30012KT 11/M11 A3005 RMK A01 T01131108  RH  020%=      5-min Rain = 0
KFL1 101926Z 30015KT 11/M11 A3005 RMK A01 T01141110  RH  020%=      5-min Rain = 0
KFL1 101927Z 30013KT 11/M11 A3005 RMK A01 T01131108  RH  020%=      5-min Rain = 0
KFL1 101928Z 29012G17KT 11/M11 A3005 RMK A01 T01121107  RH  020%=      5-min Rain = 0
KFL1 101929Z 29014KT 11/M10 A3005 RMK A01 T01131103  RH  021%=      5-min Rain = 0
KFL1 101930Z 30014KT 11/M10 A3005 RMK A01 T01121103  RH  021%=      5-min Rain = 0
KFL1 101931Z 30016KT 11/M11 A3005 RMK A01 T01131106  RH  020%=      5-min Rain = 0
KFL1 101932Z 29017KT 11/M11 A3005 RMK A01 T01131107  RH  020%=      5-min Rain = 0
KFL1 101933Z 29015KT 11/M11 A3005 RMK A01 T01131108  RH  020%=      5-min Rain = 0
KFL1 101934Z 29014KT 11/M11 A3005 RMK A01 T01121105  RH  021%=      5-min Rain = 0
KFL1 101935Z 29015G20KT 12/M10 A3005 RMK A01 T01161102  RH  021%=      5-min Rain = 0
KFL1 101936Z 29013KT 12/M11 A3005 RMK A01 T01181106  RH  020%=      5-min Rain = 0
KFL1 101937Z 29011KT 12/M11 A3005 RMK A01 T01181111  RH  019%=      5-min Rain = 0
KFL1 101938Z 29013KT 12/M11 A3005 RMK A01 T01191106  RH  020%=      5-min Rain = 0
KFL1 101939Z 30014KT 12/M11 A3005 RMK A01 T01191111  RH  019%=      5-min Rain = 0
KFL1 101940Z 28017KT 12/M11 A3005 RMK A01 T01161109  RH  019%=      5-min Rain = 0
KFL1 101941Z 28014KT 11/M11 A3005 RMK A01 T01101112  RH  020%=      5-min Rain = 0
KFL1 101942Z 28011KT 11/M11 A3005 RMK A01 T01081108  RH  021%=      5-min Rain = 0
KFL1 101943Z 27012G17KT 11/M11 A3005 RMK A01 T01071107  RH  021%=      5-min Rain = 0
KFL1 101944Z 29013KT 11/M10 A3005 RMK A01 T01091103  RH  021%=      5-min Rain = 0
KFL1 101945Z 30013KT 11/M11 A3005 RMK A01 T01111105  RH  021%=      5-min Rain = 0
KFL1 101946Z 31013KT 11/M11 A3004 RMK A01 T01081109  RH  021%=      5-min Rain = 0
KFL1 101947Z 29014KT 11/M11 A3004 RMK A01 T01071108  RH  021%=      5-min Rain = 0
KFL1 101948Z 30013KT 11/M11 A3005 RMK A01 T01081108  RH  021%=      5-min Rain = 0
KFL1 101949Z 30013KT 11/M11 A3004 RMK A01 T01051112  RH  020%=      5-min Rain = 0
KFL1 101950Z 27015G22KT 10/M11 A3004 RMK A01 T01041113  RH  021%=      5-min Rain = 0
KFL1 101951Z 29015G21KT 10/M11 A3005 RMK A01 T01041109  RH  021%=      5-min Rain = 0
KFL1 101952Z 29018KT 11/M11 A3005 RMK A01 T01091110  RH  020%=      5-min Rain = 0
KFL1 101953Z 28013KT 11/M11 A3005 RMK A01 T01101111  RH  020%=      5-min Rain = 0
KFL1 101954Z 28014KT 12/M11 A3005 RMK A01 T01151109  RH  020%=      5-min Rain = 0
KFL1 101955Z 28017KT 11/M11 A3005 RMK A01 T01141112  RH  019%=      5-min Rain = 0
KFL1 101956Z 28017KT 11/M11 A3005 RMK A01 T01141111  RH  020%=      5-min Rain = 0
KFL1 101957Z 29018KT 11/M11 A3005 RMK A01 T01111114  RH  020%=      5-min Rain = 0
KFL1 101958Z 27017KT 11/M11 A3005 RMK A01 T01101113  RH  020%=      5-min Rain = 0
KFL1 101959Z 27015KT 11/M11 A3005 RMK A01 T01101114  RH  020%=      5-min Rain = 0
KFL1 102000Z 28017KT 11/M11 A3005 RMK A01 T01071113  RH  020%=      5-min Rain = 0
KFL1 102001Z 29019KT 11/M11 A3005 RMK A01 T01071111  RH  020%=      5-min Rain = 0
KFL1 102002Z 29016KT 11/M11 A3005 RMK A01 T01061114  RH  020%=      5-min Rain = 0
KFL1 102003Z 29016KT 11/M11 A3005 RMK A01 T01061109  RH  021%=      5-min Rain = 0
KFL1 102004Z 29016KT 11/M11 A3005 RMK A01 T01071112  RH  020%=      5-min Rain = 0
KFL1 102005Z 29015KT 11/M12 A3005 RMK A01 T01091115  RH  020%=      5-min Rain = 0
KFL1 102006Z 29016KT 11/M11 A3005 RMK A01 T01111112  RH  020%=      5-min Rain = 0
KFL1 102007Z 29013KT 11/M11 A3005 RMK A01 T01131108  RH  020%=      5-min Rain = 0
KFL1 102008Z 28015KT 11/M11 A3005 RMK A01 T01131110  RH  020%=      5-min Rain = 0
KFL1 102009Z 28018KT 11/M11 A3004 RMK A01 T01111114  RH  020%=      5-min Rain = 0
KFL1 102010Z 28016KT 11/M11 A3005 RMK A01 T01111111  RH  020%=      5-min Rain = 0
KFL1 102011Z 29012KT 11/M12 A3004 RMK A01 T01071116  RH  020%=      5-min Rain = 0
KFL1 102012Z 30012KT 11/M11 A3004 RMK A01 T01061112  RH  020%=      5-min Rain = 0
KFL1 102013Z 28015KT 11/M11 A3004 RMK A01 T01081111  RH  020%=      5-min Rain = 0
KFL1 102014Z 28013KT 11/M12 A3004 RMK A01 T01111115  RH  019%=      5-min Rain = 0
KFL1 102015Z 25013KT 11/M12 A3004 RMK A01 T01091118  RH  019%=      5-min Rain = 0
KFL1 102016Z 27012KT 11/M12 A3004 RMK A01 T01091115  RH  020%=      5-min Rain = 0
KFL1 102017Z 27014KT 11/M11 A3004 RMK A01 T01131108  RH  020%=      5-min Rain = 0
KFL1 102018Z 26017KT 12/M11 A3004 RMK A01 T01161110  RH  019%=      5-min Rain = 0
KFL1 102019Z 27019G24KT 12/M11 A3004 RMK A01 T01151111  RH  019%=      5-min Rain = 0
KFL1 102020Z 26017KT 11/M11 A3004 RMK A01 T01141111  RH  020%=      5-min Rain = 0
KFL1 102021Z 26016KT 11/M12 A3004 RMK A01 T01111115  RH  019%=      5-min Rain = 0
KFL1 102022Z 27017KT 11/M11 A3004 RMK A01 T01091112  RH  020%=      5-min Rain = 0
KFL1 102023Z 27018G23KT 11/M11 A3004 RMK A01 T01071112  RH  020%=      5-min Rain = 0
KFL1 102024Z 29016G21KT 11/M11 A3004 RMK A01 T01071110  RH  021%=      5-min Rain = 0
KFL1 102025Z 29017G22KT 11/M11 A3004 RMK A01 T01071107  RH  021%=      5-min Rain = 0
KFL1 102026Z 30019KT 11/M10 A3004 RMK A01 T01101104  RH  021%=      5-min Rain = 0
KFL1 102027Z 29016KT 11/M11 A3004 RMK A01 T01101107  RH  021%=      5-min Rain = 0
KFL1 102028Z 29015G20KT 11/M11 A3004 RMK A01 T01111107  RH  020%=      5-min Rain = 0
KFL1 102029Z 29011KT 11/M11 A3004 RMK A01 T01071113  RH  020%=      5-min Rain = 0
KFL1 102030Z 28011KT 11/M11 A3004 RMK A01 T01091107  RH  021%=      5-min Rain = 0
KFL1 102031Z 28010KT 11/M10 A3005 RMK A01 T01131104  RH  021%=      5-min Rain = 0
KFL1 102032Z 28012G17KT 11/M11 A3005 RMK A01 T01111107  RH  021%=      5-min Rain = 0
KFL1 102033Z 28017G22KT 11/M11 A3004 RMK A01 T01101109  RH  020%=      5-min Rain = 0
KFL1 102034Z 28016KT 11/M11 A3005 RMK A01 T01091110  RH  020%=      5-min Rain = 0
KFL1 102035Z 28015KT 11/M10 A3005 RMK A01 T01111104  RH  021%=      5-min Rain = 0
KFL1 102036Z 29015G20KT 11/M11 A3005 RMK A01 T01101106  RH  021%=      5-min Rain = 0
KFL1 102037Z 29018KT 11/M11 A3005 RMK A01 T01091105  RH  021%=      5-min Rain = 0
KFL1 102038Z 30013KT 11/M11 A3005 RMK A01 T01101109  RH  020%=      5-min Rain = 0
KFL1 102039Z 32009KT 11/M11 A3005 RMK A01 T01071112  RH  020%=      5-min Rain = 0
KFL1 102040Z 28011G20KT 11/M11 A3005 RMK A01 T01061108  RH  021%=      5-min Rain = 0
KFL1 102041Z 27015KT 11/M10 A3005 RMK A01 T01091104  RH  021%=      5-min Rain = 0
KFL1 102042Z 27012KT 11/M11 A3005 RMK A01 T01071106  RH  021%=      5-min Rain = 0
KFL1 102043Z 26014KT 11/M11 A3005 RMK A01 T01061109  RH  021%=      5-min Rain = 0
KFL1 102044Z 27014KT 11/M11 A3005 RMK A01 T01061110  RH  021%=      5-min Rain = 0
KFL1 102045Z 28012KT 11/M11 A3005 RMK A01 T01071109  RH  021%=      5-min Rain = 0
KFL1 102046Z 26010KT 11/M11 A3005 RMK A01 T01061111  RH  021%=      5-min Rain = 0
KFL1 102047Z 25009KT 11/M11 A3005 RMK A01 T01051113  RH  020%=      5-min Rain = 0
KFL1 102048Z 28012G17KT 11/M11 A3005 RMK A01 T01061112  RH  020%=      5-min Rain = 0
KFL1 102049Z 27016KT 11/M11 A3005 RMK A01 T01071112  RH  020%=      5-min Rain = 0
KFL1 102050Z 27014KT 11/M11 A3004 RMK A01 T01071112  RH  020%=      5-min Rain = 0
KFL1 102051Z 27017KT 11/M11 A3004 RMK A01 T01091111  RH  020%=      5-min Rain = 0
KFL1 102052Z 28016G21KT 11/M11 A3004 RMK A01 T01071111  RH  020%=      5-min Rain = 0
KFL1 102053Z 30012KT 11/M11 A3004 RMK A01 T01071109  RH  021%=      5-min Rain = 0
KFL1 102054Z 29016G21KT 11/M10 A3004 RMK A01 T01111101  RH  021%=      5-min Rain = 0
KFL1 102055Z 29015G20KT 11/M11 A3004 RMK A01 T01101108  RH  020%=      5-min Rain = 0
KFL1 102056Z 28018KT 11/M11 A3004 RMK A01 T01091109  RH  020%=      5-min Rain = 0
KFL1 102057Z 29018KT 11/M11 A3004 RMK A01 T01051111  RH  021%=      5-min Rain = 0
KFL1 102058Z 29016KT 10/M11 A3005 RMK A01 T01041110  RH  021%=      5-min Rain = 0
KFL1 102059Z 28014KT 11/M11 A3005 RMK A01 T01051109  RH  021%=      5-min Rain = 0
KFL1 102100Z 28014KT 11/M11 A3004 RMK A01 T01061111  RH  021%=      5-min Rain = 0
KFL1 102101Z 28012KT 11/M11 A3005 RMK A01 T01061107  RH  021%=      5-min Rain = 0
KFL1 102102Z 28013KT 11/M11 A3005 RMK A01 T01051110  RH  021%=      5-min Rain = 0
KFL1 102103Z 27012KT 11/M10 A3005 RMK A01 T01061104  RH  022%=      5-min Rain = 0
KFL1 102104Z 27015G20KT 11/M11 A3005 RMK A01 T01101105  RH  021%=      5-min Rain = 0
KFL1 102105Z 27012KT 11/M11 A3004 RMK A01 T01081108  RH  021%=      5-min Rain = 0
KFL1 102106Z 27016G21KT 11/M11 A3004 RMK A01 T01081107  RH  021%=      5-min Rain = 0
KFL1 102107Z 28019KT 11/M11 A3004 RMK A01 T01091106  RH  021%=      5-min Rain = 0
KFL1 102108Z 29016G22KT 11/M11 A3004 RMK A01 T01101106  RH  021%=      5-min Rain = 0
KFL1 102109Z 29017G22KT 11/M11 A3004 RMK A01 T01101106  RH  021%=      5-min Rain = 0
KFL1 102110Z 30019KT 11/M11 A3004 RMK A01 T01081109  RH  021%=      5-min Rain = 0
KFL1 102111Z 31012G17KT 11/M11 A3004 RMK A01 T01071113  RH  020%=      5-min Rain = 0
KFL1 102112Z 30010KT 11/M11 A3004 RMK A01 T01071112  RH  020%=      5-min Rain = 0
KFL1 102113Z 28013KT 11/M11 A3004 RMK A01 T01071109  RH  021%=      5-min Rain = 0
KFL1 102114Z 28015KT 11/M11 A3004 RMK A01 T01071110  RH  021%=      5-min Rain = 0
KFL1 102115Z 29018KT 11/M11 A3004 RMK A01 T01071112  RH  020%=      5-min Rain = 0
KFL1 102116Z 28018KT 11/M11 A3004 RMK A01 T01081108  RH  021%=      5-min Rain = 0
KFL1 102117Z 28015KT 11/M11 A3004 RMK A01 T01051111  RH  021%=      5-min Rain = 0
KFL1 102118Z 28012KT 11/M11 A3004 RMK A01 T01061107  RH  021%=      5-min Rain = 0
KFL1 102119Z 28014G21KT 11/M10 A3004 RMK A01 T01101102  RH  021%=      5-min Rain = 0
KFL1 102120Z 28019KT 11/M11 A3004 RMK A01 T01101106  RH  021%=      5-min Rain = 0
KFL1 102121Z 28020KT 11/M11 A3004 RMK A01 T01091111  RH  020%=      5-min Rain = 0
KFL1 102122Z 28014KT 11/M11 A3005 RMK A01 T01081111  RH  020%=      5-min Rain = 0
KFL1 102123Z 28016G21KT 11/M11 A3005 RMK A01 T01071111  RH  020%=      5-min Rain = 0
KFL1 102124Z 28015KT 11/M11 A3005 RMK A01 T01081111  RH  020%=      5-min Rain = 0
KFL1 102125Z 27014KT 11/M11 A3005 RMK A01 T01071113  RH  020%=      5-min Rain = 0
KFL1 102126Z 27011KT 11/M11 A3005 RMK A01 T01061113  RH  020%=      5-min Rain = 0
KFL1 102127Z 28010KT 11/M11 A3005 RMK A01 T01071109  RH  021%=      5-min Rain = 0
KFL1 102128Z 26014G20KT 11/M11 A3005 RMK A01 T01091107  RH  021%=      5-min Rain = 0
KFL1 102129Z 28016G21KT 11/M11 A3005 RMK A01 T01101109  RH  020%=      5-min Rain = 0
KFL1 102130Z 27014G19KT 11/M11 A3005 RMK A01 T01131106  RH  021%=      5-min Rain = 0
KFL1 102131Z 26013G18KT 11/M11 A3005 RMK A01 T01091110  RH  020%=      5-min Rain = 0
KFL1 102132Z 27017G24KT 11/M11 A3005 RMK A01 T01101108  RH  020%=      5-min Rain = 0
KFL1 102133Z 28018G25KT 11/M11 A3005 RMK A01 T01101106  RH  021%=      5-min Rain = 0
KFL1 102134Z 28017KT 11/M11 A3005 RMK A01 T01091111  RH  020%=      5-min Rain = 0
KFL1 102135Z 29017KT 11/M11 A3005 RMK A01 T01071113  RH  020%=      5-min Rain = 0
KFL1 102136Z 30017KT 11/M11 A3005 RMK A01 T01071113  RH  020%=      5-min Rain = 0
KFL1 102137Z 29017KT 11/M11 A3005 RMK A01 T01081109  RH  021%=      5-min Rain = 0
KFL1 102138Z 28016KT 11/M11 A3005 RMK A01 T01081108  RH  021%=      5-min Rain = 0
KFL1 102139Z 28013KT 11/M11 A3005 RMK A01 T01101106  RH  021%=      5-min Rain = 0
KFL1 102140Z 28013KT 11/M10 A3005 RMK A01 T01131101  RH  021%=      5-min Rain = 0
KFL1 102141Z 27013KT 11/M10 A3005 RMK A01 T01131103  RH  021%=      5-min Rain = 0
KFL1 102142Z 26014KT 11/M11 A3005 RMK A01 T01101111  RH  020%=      5-min Rain = 0
KFL1 102143Z 25013G18KT 11/M11 A3005 RMK A01 T01091110  RH  020%=      5-min Rain = 0
KFL1 102144Z 29012KT 11/M11 A3005 RMK A01 T01091107  RH  021%=      5-min Rain = 0
KFL1 102145Z 28012KT 11/M10 A3005 RMK A01 T01121104  RH  021%=      5-min Rain = 0
KFL1 102146Z 28014G20KT 11/M11 A3005 RMK A01 T01121108  RH  020%=      5-min Rain = 0
KFL1 102147Z 28015G20KT 11/M11 A3005 RMK A01 T01101111  RH  020%=      5-min Rain = 0
KFL1 102148Z 29013KT 11/M11 A3005 RMK A01 T01081111  RH  020%=      5-min Rain = 0
KFL1 102149Z 29011KT 11/M11 A3005 RMK A01 T01091108  RH  021%=      5-min Rain = 0
KFL1 102150Z 28010G15KT 11/M10 A3005 RMK A01 T01111104  RH  021%=      5-min Rain = 0
KFL1 102151Z 27015KT 11/M11 A3005 RMK A01 T01101108  RH  021%=      5-min Rain = 0
KFL1 102152Z 27011KT 11/M11 A3005 RMK A01 T01101108  RH  021%=      5-min Rain = 0
KFL1 102153Z 28012KT 11/M11 A3005 RMK A01 T01091108  RH  021%=      5-min Rain = 0
KFL1 102154Z 30011KT 11/M11 A3005 RMK A01 T01101107  RH  021%=      5-min Rain = 0
KFL1 102155Z 30012KT 11/M10 A3004 RMK A01 T01111101  RH  021%=      5-min Rain = 0
KFL1 102156Z 29012KT 11/M10 A3004 RMK A01 T01131101  RH  021%=      5-min Rain = 0
KFL1 102157Z 29018KT 11/M10 A3004 RMK A01 T01131104  RH  021%=      5-min Rain = 0
KFL1 102158Z 29015KT 11/M11 A3004 RMK A01 T01071111  RH  020%=      5-min Rain = 0
KFL1 102159Z 28015KT 11/M11 A3005 RMK A01 T01071107  RH  021%=      5-min Rain = 0
KFL1 102200Z 28015KT 11/M11 A3005 RMK A01 T01081108  RH  021%=      5-min Rain = 0
KFL1 102201Z 28017G22KT 11/M11 A3005 RMK A01 T01081108  RH  021%=      5-min Rain = 0
KFL1 102202Z 28018KT 10/M11 A3005 RMK A01 T01041110  RH  021%=      5-min Rain = 0
KFL1 102203Z 28013KT 10/M12 A3005 RMK A01 T01021115  RH  020%=      5-min Rain = 0
KFL1 102204Z 28010KT 10/M11 A3005 RMK A01 T01011114  RH  021%=      5-min Rain = 0
KFL1 102205Z 27013KT 10/M11 A3005 RMK A01 T01041107  RH  022%=      5-min Rain = 0
KFL1 102206Z 26012G20KT 10/M11 A3005 RMK A01 T01041108  RH  021%=      5-min Rain = 0
KFL1 102207Z 28018KT 10/M11 A3005 RMK A01 T01031112  RH  021%=      5-min Rain = 0
KFL1 102208Z 28016KT 10/M11 A3005 RMK A01 T01031113  RH  021%=      5-min Rain = 0
KFL1 102209Z 27020KT 10/M11 A3005 RMK A01 T01011114  RH  021%=      5-min Rain = 0
KFL1 102210Z 27017G22KT 10/M12 A3005 RMK A01 T01011115  RH  021%=      5-min Rain = 0
KFL1 102211Z 26015G20KT 10/M12 A3004 RMK A01 T00991116  RH  021%=      5-min Rain = 0
KFL1 102212Z 26016KT 10/M12 A3004 RMK A01 T01011116  RH  021%=      5-min Rain = 0
KFL1 102213Z 27016G22KT 10/M11 A3004 RMK A01 T01021114  RH  021%=      5-min Rain = 0
KFL1 102214Z 26018KT 10/M12 A3004 RMK A01 T01001116  RH  021%=      5-min Rain = 0
KFL1 102215Z 26016G21KT 10/M12 A3004 RMK A01 T01001117  RH  020%=      5-min Rain = 0
KFL1 102216Z 27014G21KT 10/M12 A3004 RMK A01 T01001118  RH  020%=      5-min Rain = 0
KFL1 102217Z 28018KT 10/M11 A3005 RMK A01 T01021111  RH  021%=      5-min Rain = 0
KFL1 102218Z 29016KT 10/M11 A3005 RMK A01 T01001113  RH  021%=      5-min Rain = 0
KFL1 102219Z 30015KT 10/M11 A3005 RMK A01 T01021109  RH  021%=      5-min Rain = 0
KFL1 102220Z 30011KT 10/M11 A3005 RMK A01 T01011110  RH  022%=      5-min Rain = 0
KFL1 102221Z 31011KT 10/M11 A3005 RMK A01 T01001109  RH  022%=      5-min Rain = 0
KFL1 102222Z 31010KT 10/M11 A3005 RMK A01 T01011109  RH  022%=      5-min Rain = 0
KFL1 102223Z 29008KT 10/M11 A3005 RMK A01 T01021109  RH  021%=      5-min Rain = 0
KFL1 102224Z 27012KT 10/M11 A3005 RMK A01 T01001112  RH  021%=      5-min Rain = 0
KFL1 102225Z 27015KT 10/M12 A3005 RMK A01 T01001118  RH  020%=      5-min Rain = 0
KFL1 102226Z 27013KT 10/M12 A3005 RMK A01 T01001119  RH  020%=      5-min Rain = 0
KFL1 102227Z 28014KT 10/M12 A3005 RMK A01 T00981119  RH  020%=      5-min Rain = 0
KFL1 102228Z 27014KT 10/M12 A3005 RMK A01 T00981118  RH  020%=      5-min Rain = 0
KFL1 102229Z 27014KT 10/M12 A3005 RMK A01 T00981118  RH  020%=      5-min Rain = 0
KFL1 102230Z 28014KT 10/M11 A3005 RMK A01 T01001114  RH  021%=      5-min Rain = 0
KFL1 102231Z 28015KT 10/M11 A3005 RMK A01 T01001112  RH  021%=      5-min Rain = 0
KFL1 102232Z 29012KT 10/M12 A3005 RMK A01 T00991116  RH  021%=      5-min Rain = 0
KFL1 102233Z 30012KT 10/M11 A3005 RMK A01 T00991112  RH  021%=      5-min Rain = 0
KFL1 102234Z 30014KT 10/M11 A3005 RMK A01 T01001108  RH  022%=      5-min Rain = 0
KFL1 102235Z 28012KT 10/M11 A3005 RMK A01 T01011112  RH  021%=      5-min Rain = 0
KFL1 102236Z 28014KT 10/M11 A3005 RMK A01 T01011112  RH  021%=      5-min Rain = 0
KFL1 102237Z 28013KT 10/M11 A3005 RMK A01 T00991112  RH  021%=      5-min Rain = 0
KFL1 102238Z 28016KT 10/M11 A3005 RMK A01 T00981113  RH  021%=      5-min Rain = 0
KFL1 102239Z 28016KT 10/M11 A3005 RMK A01 T00971114  RH  021%=      5-min Rain = 0
KFL1 102240Z 29016KT 10/M11 A3005 RMK A01 T00971114  RH  021%=      5-min Rain = 0
KFL1 102241Z 29015KT 10/M11 A3005 RMK A01 T00981114  RH  021%=      5-min Rain = 0
KFL1 102242Z 29016KT 10/M12 A3005 RMK A01 T00951116  RH  021%=      5-min Rain = 0
KFL1 102243Z 29017KT 10/M12 A3005 RMK A01 T00961115  RH  021%=      5-min Rain = 0
KFL1 102244Z 29012KT 10/M11 A3005 RMK A01 T00971112  RH  022%=      5-min Rain = 0
KFL1 102245Z 27012KT 10/M11 A3005 RMK A01 T00981109  RH  022%=      5-min Rain = 0
KFL1 102246Z 26015KT 10/M11 A3005 RMK A01 T00971114  RH  021%=      5-min Rain = 0
KFL1 102247Z 27014KT 10/M11 A3005 RMK A01 T00991114  RH  021%=      5-min Rain = 0
KFL1 102248Z 27014KT 10/M11 A3005 RMK A01 T00981114  RH  021%=      5-min Rain = 0
KFL1 102249Z 28011KT 10/M12 A3005 RMK A01 T00961117  RH  021%=      5-min Rain = 0
KFL1 102250Z 28014KT 10/M12 A3005 RMK A01 T00961115  RH  021%=      5-min Rain = 0
KFL1 102251Z 28012KT 10/M11 A3005 RMK A01 T00971113  RH  022%=      5-min Rain = 0
KFL1 102252Z 30011KT 10/M11 A3005 RMK A01 T00961114  RH  021%=      5-min Rain = 0
KFL1 102253Z 28010KT 10/M11 A3005 RMK A01 T00971111  RH  022%=      5-min Rain = 0
KFL1 102254Z 28012KT 10/M11 A3005 RMK A01 T00981113  RH  021%=      5-min Rain = 0
KFL1 102255Z 29013KT 10/M11 A3005 RMK A01 T01001110  RH  022%=      5-min Rain = 0
KFL1 102256Z 29013KT 10/M11 A3005 RMK A01 T01001110  RH  021%=      5-min Rain = 0
KFL1 102257Z 29015KT 10/M11 A3005 RMK A01 T00991109  RH  022%=      5-min Rain = 0
KFL1 102258Z 29015KT 10/M11 A3005 RMK A01 T01001110  RH  022%=      5-min Rain = 0
KFL1 102259Z 29014KT 10/M11 A3005 RMK A01 T01001111  RH  021%=      5-min Rain = 0
KFL1 102300Z 28012KT 10/M11 A3005 RMK A01 T00991108  RH  022%=      5-min Rain = 0
KFL1 102301Z 27013KT 10/M11 A3005 RMK A01 T00991111  RH  022%=      5-min Rain = 0
KFL1 102302Z 27015G20KT 10/M11 A3005 RMK A01 T01011108  RH  022%=      5-min Rain = 0
KFL1 102303Z 28016KT 10/M11 A3005 RMK A01 T00991111  RH  022%=      5-min Rain = 0
KFL1 102304Z 26018KT 10/M11 A3005 RMK A01 T00981111  RH  022%=      5-min Rain = 0
KFL1 102305Z 27015KT 10/M11 A3005 RMK A01 T00971114  RH  021%=      5-min Rain = 0
KFL1 102306Z 27013KT 10/M11 A3005 RMK A01 T00981112  RH  021%=      5-min Rain = 0
KFL1 102307Z 28013KT 10/M11 A3005 RMK A01 T00961113  RH  022%=      5-min Rain = 0
KFL1 102308Z 29011KT 10/M11 A3005 RMK A01 T00971112  RH  022%=      5-min Rain = 0
KFL1 102309Z 28010KT 10/M11 A3005 RMK A01 T00981110  RH  022%=      5-min Rain = 0
KFL1 102310Z 28010G15KT 10/M11 A3005 RMK A01 T00991110  RH  022%=      5-min Rain = 0
KFL1 102311Z 27014KT 10/M11 A3005 RMK A01 T00981110  RH  022%=      5-min Rain = 0
KFL1 102312Z 27016KT 10/M11 A3005 RMK A01 T00971112  RH  022%=      5-min Rain = 0
KFL1 102313Z 27013KT 10/M11 A3005 RMK A01 T00961111  RH  022%=      5-min Rain = 0
KFL1 102314Z 27015KT 10/M11 A3005 RMK A01 T00971109  RH  022%=      5-min Rain = 0
KFL1 102315Z 27013KT 10/M11 A3005 RMK A01 T00961111  RH  022%=      5-min Rain = 0
KFL1 102316Z 29013KT 10/M11 A3005 RMK A01 T00951111  RH  022%=      5-min Rain = 0
KFL1 102317Z 29011KT 10/M11 A3005 RMK A01 T00961108  RH  023%=      5-min Rain = 0
KFL1 102318Z 27009KT 10/M11 A3005 RMK A01 T00961108  RH  023%=      5-min Rain = 0
KFL1 102319Z 27009G14KT 10/M11 A3005 RMK A01 T00951110  RH  022%=      5-min Rain = 0
KFL1 102320Z 27011KT 10/M11 A3005 RMK A01 T00961110  RH  022%=      5-min Rain = 0
KFL1 102321Z 27009KT 10/M11 A3005 RMK A01 T00961111  RH  022%=      5-min Rain = 0
KFL1 102322Z 28012G17KT 10/M11 A3005 RMK A01 T00961110  RH  022%=      5-min Rain = 0
KFL1 102323Z 26013KT 10/M11 A3005 RMK A01 T00961111  RH  022%=      5-min Rain = 0
KFL1 102324Z 26015KT 10/M11 A3005 RMK A01 T00971109  RH  022%=      5-min Rain = 0
KFL1 102325Z 27015G20KT 10/M11 A3005 RMK A01 T00971108  RH  022%=      5-min Rain = 0
KFL1 102326Z 27015KT 10/M11 A3005 RMK A01 T00951111  RH  022%=      5-min Rain = 0
KFL1 102327Z 27012KT 09/M11 A3005 RMK A01 T00941113  RH  022%=      5-min Rain = 0
KFL1 102328Z 27010KT 09/M11 A3005 RMK A01 T00941112  RH  022%=      5-min Rain = 0
KFL1 102329Z 27010KT 10/M11 A3006 RMK A01 T00961111  RH  022%=      5-min Rain = 0
KFL1 102330Z 27014KT 10/M11 A3006 RMK A01 T00961109  RH  022%=      5-min Rain = 0
KFL1 102331Z 29014KT 09/M11 A3006 RMK A01 T00941112  RH  022%=      5-min Rain = 0
KFL1 102332Z 27011KT 09/M11 A3006 RMK A01 T00941108  RH  023%=      5-min Rain = 0
KFL1 102333Z 27015KT 09/M11 A3006 RMK A01 T00941109  RH  023%=      5-min Rain = 0
KFL1 102334Z 27012KT 09/M11 A3006 RMK A01 T00941108  RH  023%=      5-min Rain = 0
KFL1 102335Z 27011KT 09/M11 A3006 RMK A01 T00941108  RH  023%=      5-min Rain = 0
KFL1 102336Z 27011KT 09/M11 A3006 RMK A01 T00941109  RH  023%=      5-min Rain = 0
KFL1 102337Z 26012KT 09/M11 A3006 RMK A01 T00931109  RH  023%=      5-min Rain = 0
KFL1 102338Z 26011KT 09/M11 A3006 RMK A01 T00941110  RH  023%=      5-min Rain = 0
KFL1 102339Z 26012KT 09/M11 A3006 RMK A01 T00931109  RH  023%=      5-min Rain = 0
KFL1 102340Z 27012KT 09/M11 A3006 RMK A01 T00921110  RH  023%=      5-min Rain = 0
KFL1 102341Z 28011KT 09/M11 A3006 RMK A01 T00921109  RH  023%=      5-min Rain = 0
KFL1 102342Z 27011KT 09/M11 A3006 RMK A01 T00921111  RH  023%=      5-min Rain = 0
KFL1 102343Z 27010KT 09/M11 A3006 RMK A01 T00931110  RH  023%=      5-min Rain = 0
KFL1 102344Z 27010KT 09/M11 A3006 RMK A01 T00941107  RH  023%=      5-min Rain = 0
KFL1 102345Z 27010KT 09/M11 A3006 RMK A01 T00931108  RH  023%=      5-min Rain = 0
KFL1 102346Z 26012KT 09/M11 A3006 RMK A01 T00911111  RH  023%=      5-min Rain = 0
KFL1 102347Z 28012KT 09/M11 A3006 RMK A01 T00911113  RH  022%=      5-min Rain = 0
KFL1 102348Z 28012KT 09/M11 A3006 RMK A01 T00911112  RH  022%=      5-min Rain = 0
KFL1 102349Z 28009KT 09/M11 A3006 RMK A01 T00911110  RH  023%=      5-min Rain = 0
KFL1 102350Z 27009KT 09/M11 A3006 RMK A01 T00911110  RH  023%=      5-min Rain = 0
KFL1 102351Z 27010KT 09/M11 A3006 RMK A01 T00911112  RH  023%=      5-min Rain = 0
KFL1 102352Z 28012KT 09/M11 A3006 RMK A01 T00921109  RH  023%=      5-min Rain = 0
KFL1 102353Z 28011KT 09/M11 A3006 RMK A01 T00921107  RH  023%=      5-min Rain = 0
KFL1 102354Z 28011KT 09/M11 A3006 RMK A01 T00901111  RH  023%=      5-min Rain = 0
KFL1 102355Z 27013KT 09/M11 A3006 RMK A01 T00891112  RH  023%=      5-min Rain = 0
KFL1 102356Z 28013KT 09/M11 A3006 RMK A01 T00891113  RH  023%=      5-min Rain = 0
KFL1 102357Z 28013KT 09/M11 A3006 RMK A01 T00901112  RH  023%=      5-min Rain = 0
KFL1 102358Z 28013KT 09/M11 A3006 RMK A01 T00891114  RH  023%=      5-min Rain = 0
KFL1 102359Z 28011KT 09/M11 A3006 RMK A01 T00891112  RH  023%=      5-min Rain = 0
KFL1 110000Z 28010KT 09/M11 A3006 RMK A01 T00891112  RH  023%=      5-min Rain = 0
KFL1 110001Z 27009KT 09/M11 A3006 RMK A01 T00891109  RH  023%=      5-min Rain = 0
KFL1 110002Z 28011KT 09/M11 A3006 RMK A01 T00891111  RH  023%=      5-min Rain = 0
KFL1 110003Z 28010KT 09/M11 A3006 RMK A01 T00901110  RH  023%=      5-min Rain = 0
KFL1 110004Z 28009KT 09/M11 A3006 RMK A01 T00911106  RH  024%=      5-min Rain = 0
KFL1 110005Z 28010KT 09/M10 A3006 RMK A01 T00901104  RH  024%=      5-min Rain = 0
KFL1 110006Z 28013KT 09/M11 A3006 RMK A01 T00891106  RH  024%=      5-min Rain = 0
KFL1 110007Z 29011KT 09/M11 A3006 RMK A01 T00881108  RH  024%=      5-min Rain = 0
KFL1 110008Z 29010KT 09/M11 A3006 RMK A01 T00881108  RH  024%=      5-min Rain = 0
KFL1 110009Z 28009KT 09/M11 A3006 RMK A01 T00881106  RH  024%=      5-min Rain = 0
KFL1 110010Z 27007KT 09/M11 A3006 RMK A01 T00871106  RH  024%=      5-min Rain = 0
KFL1 110011Z 27009KT 09/M11 A3006 RMK A01 T00871109  RH  024%=      5-min Rain = 0
KFL1 110012Z 28009KT 09/M11 A3006 RMK A01 T00871109  RH  024%=      5-min Rain = 0
KFL1 110013Z 28009KT 09/M11 A3006 RMK A01 T00871109  RH  024%=      5-min Rain = 0
KFL1 110014Z 27010KT 09/M11 A3006 RMK A01 T00881108  RH  024%=      5-min Rain = 0
KFL1 110015Z 27009KT 09/M11 A3006 RMK A01 T00881107  RH  024%=      5-min Rain = 0
KFL1 110016Z 28012KT 09/M11 A3006 RMK A01 T00891109  RH  024%=      5-min Rain = 0
KFL1 110017Z 29009KT 09/M11 A3006 RMK A01 T00871111  RH  023%=      5-min Rain = 0
KFL1 110018Z 28009KT 09/M11 A3006 RMK A01 T00871111  RH  023%=      5-min Rain = 0
KFL1 110019Z 29011KT 09/M11 A3006 RMK A01 T00861110  RH  024%=      5-min Rain = 0
KFL1 110020Z 29010KT 09/M11 A3006 RMK A01 T00861108  RH  024%=      5-min Rain = 0
KFL1 110021Z 29008KT 09/M11 A3006 RMK A01 T00861107  RH  024%=      5-min Rain = 0
KFL1 110022Z 29010KT 09/M11 A3006 RMK A01 T00861109  RH  024%=      5-min Rain = 0
KFL1 110023Z 29009KT 09/M11 A3006 RMK A01 T00851110  RH  024%=      5-min Rain = 0
KFL1 110024Z 29010G15KT 09/M11 A3006 RMK A01 T00851109  RH  024%=      5-min Rain = 0
KFL1 110025Z 29010KT 08/M11 A3006 RMK A01 T00841110  RH  024%=      5-min Rain = 0
KFL1 110026Z 29011KT 09/M11 A3006 RMK A01 T00871108  RH  024%=      5-min Rain = 0
KFL1 110027Z 29009KT 08/M11 A3006 RMK A01 T00841109  RH  024%=      5-min Rain = 0
KFL1 110028Z 29010KT 09/M11 A3006 RMK A01 T00851110  RH  024%=      5-min Rain = 0
KFL1 110029Z 29010KT 09/M11 A3006 RMK A01 T00851109  RH  024%=      5-min Rain = 0
KFL1 110030Z 29009KT 08/M11 A3006 RMK A01 T00841108  RH  024%=      5-min Rain = 0
KFL1 110031Z 28010KT 08/M11 A3006 RMK A01 T00831108  RH  025%=      5-min Rain = 0
KFL1 110032Z 30011KT 08/M11 A3006 RMK A01 T00831108  RH  025%=      5-min Rain = 0
KFL1 110033Z 28009KT 08/M11 A3006 RMK A01 T00821110  RH  024%=      5-min Rain = 0
KFL1 110034Z 28009KT 08/M11 A3006 RMK A01 T00821111  RH  024%=      5-min Rain = 0
KFL1 110035Z 29009KT 08/M11 A3006 RMK A01 T00831108  RH  025%=      5-min Rain = 0
KFL1 110036Z 29008KT 08/M11 A3006 RMK A01 T00821107  RH  025%=      5-min Rain = 0
KFL1 110037Z 29010KT 08/M11 A3006 RMK A01 T00811108  RH  025%=      5-min Rain = 0
KFL1 110038Z 28009G14KT 08/M11 A3006 RMK A01 T00811105  RH  025%=      5-min Rain = 0
KFL1 110039Z 28011KT 08/M11 A3006 RMK A01 T00801107  RH  025%=      5-min Rain = 0
KFL1 110040Z 29011KT 08/M11 A3006 RMK A01 T00811109  RH  025%=      5-min Rain = 0
KFL1 110041Z 29009KT 08/M11 A3006 RMK A01 T00801108  RH  025%=      5-min Rain = 0
KFL1 110042Z 28009KT 08/M11 A3006 RMK A01 T00791110  RH  025%=      5-min Rain = 0
KFL1 110043Z 28011KT 08/M11 A3006 RMK A01 T00801109  RH  025%=      5-min Rain = 0
KFL1 110044Z 29011KT 08/M11 A3006 RMK A01 T00811110  RH  025%=      5-min Rain = 0
KFL1 110045Z 29009KT 08/M11 A3006 RMK A01 T00811109  RH  025%=      5-min Rain = 0
KFL1 110046Z 28009KT 08/M11 A3006 RMK A01 T00801111  RH  025%=      5-min Rain = 0
KFL1 110047Z 28009KT 08/M11 A3006 RMK A01 T00801109  RH  025%=      5-min Rain = 0
KFL1 110048Z 28008KT 08/M11 A3006 RMK A01 T00811106  RH  025%=      5-min Rain = 0
KFL1 110049Z 28008KT 08/M11 A3006 RMK A01 T00791110  RH  025%=      5-min Rain = 0
KFL1 110050Z 28007KT 08/M11 A3006 RMK A01 T00801107  RH  025%=      5-min Rain = 0
KFL1 110051Z 28008KT 08/M11 A3006 RMK A01 T00771107  RH  026%=      5-min Rain = 0
KFL1 110052Z 28008KT 08/M11 A3006 RMK A01 T00761108  RH  026%=      5-min Rain = 0
KFL1 110053Z 27007KT 08/M11 A3006 RMK A01 T00751110  RH  026%=      5-min Rain = 0
KFL1 110054Z 28007KT 08/M11 A3006 RMK A01 T00761111  RH  025%=      5-min Rain = 0
KFL1 110055Z 28008KT 08/M11 A3006 RMK A01 T00781108  RH  025%=      5-min Rain = 0
KFL1 110056Z 28007KT 08/M11 A3006 RMK A01 T00761109  RH  026%=      5-min Rain = 0
KFL1 110057Z 28007KT 08/M11 A3006 RMK A01 T00751108  RH  026%=      5-min Rain = 0
KFL1 110058Z 28007KT 08/M11 A3006 RMK A01 T00751109  RH  026%=      5-min Rain = 0
KFL1 110059Z 28006KT 08/M11 A3006 RMK A01 T00761106  RH  026%=      5-min Rain = 0
KFL1 110100Z 29005KT 08/M11 A3006 RMK A01 T00751107  RH  026%=      5-min Rain = 0
KFL1 110101Z 27005KT 07/M11 A3006 RMK A01 T00731106  RH  027%=      5-min Rain = 0
KFL1 110102Z 26004KT 07/M11 A3006 RMK A01 T00721107  RH  027%=      5-min Rain = 0
KFL1 110103Z 26005KT 07/M11 A3006 RMK A01 T00711108  RH  027%=      5-min Rain = 0
KFL1 110104Z 26005KT 07/M11 A3006 RMK A01 T00711109  RH  027%=      5-min Rain = 0
KFL1 110105Z 26005KT 07/M11 A3006 RMK A01 T00711108  RH  027%=      5-min Rain = 0
KFL1 110106Z 26005KT 07/M11 A3006 RMK A01 T00701108  RH  027%=      5-min Rain = 0
KFL1 110107Z 26005KT 07/M11 A3006 RMK A01 T00691107  RH  027%=      5-min Rain = 0
KFL1 110108Z 26004KT 07/M11 A3006 RMK A01 T00671108  RH  027%=      5-min Rain = 0
KFL1 110109Z 26005KT 07/M11 A3006 RMK A01 T00671106  RH  028%=      5-min Rain = 0
KFL1 110110Z 26005KT 06/M11 A3006 RMK A01 T00641105  RH  029%=      5-min Rain = 0
KFL1 110111Z 27005KT 06/M11 A3006 RMK A01 T00631106  RH  029%=      5-min Rain = 0
KFL1 110112Z 27005KT 06/M11 A3006 RMK A01 T00631105  RH  029%=      5-min Rain = 0
KFL1 110113Z 27005KT 06/M11 A3006 RMK A01 T00631106  RH  029%=      5-min Rain = 0
KFL1 110114Z 27004KT 06/M11 A3006 RMK A01 T00621108  RH  028%=      5-min Rain = 0
KFL1 110115Z 26004KT 06/M11 A3007 RMK A01 T00621109  RH  028%=      5-min Rain = 0
KFL1 110116Z 26005KT 06/M11 A3007 RMK A01 T00621108  RH  028%=      5-min Rain = 0
KFL1 110117Z 26005KT 06/M11 A3007 RMK A01 T00621108  RH  029%=      5-min Rain = 0
KFL1 110118Z 27005KT 06/M11 A3007 RMK A01 T00621108  RH  028%=      5-min Rain = 0
KFL1 110119Z 27004KT 06/M11 A3007 RMK A01 T00611110  RH  028%=      5-min Rain = 0
KFL1 110120Z 27004KT 06/M11 A3007 RMK A01 T00611110  RH  028%=      5-min Rain = 0
KFL1 110121Z 27004KT 06/M11 A3007 RMK A01 T00601112  RH  028%=      5-min Rain = 0
KFL1 110122Z 27004KT 06/M11 A3007 RMK A01 T00611109  RH  028%=      5-min Rain = 0
KFL1 110123Z 27004KT 06/M11 A3007 RMK A01 T00591106  RH  029%=      5-min Rain = 0
KFL1 110124Z 28003KT 06/M11 A3007 RMK A01 T00561107  RH  030%=      5-min Rain = 0
KFL1 110125Z 28003KT 05/M11 A3007 RMK A01 T00541108  RH  030%=      5-min Rain = 0
KFL1 110126Z 28003KT 05/M11 A3007 RMK A01 T00541110  RH  029%=      5-min Rain = 0
KFL1 110127Z 27003KT 06/M11 A3007 RMK A01 T00551108  RH  030%=      5-min Rain = 0
KFL1 110128Z 27003KT 05/M11 A3007 RMK A01 T00531109  RH  030%=      5-min Rain = 0
KFL1 110129Z 27003KT 05/M11 A3007 RMK A01 T00541108  RH  030%=      5-min Rain = 0
KFL1 110130Z 27003KT 05/M11 A3007 RMK A01 T00521110  RH  030%=      5-min Rain = 0
KFL1 110131Z 28003KT 05/M11 A3007 RMK A01 T00521110  RH  030%=      5-min Rain = 0
KFL1 110132Z 28003KT 05/M11 A3007 RMK A01 T00521109  RH  030%=      5-min Rain = 0
KFL1 110133Z 28003KT 05/M11 A3007 RMK A01 T00531110  RH  030%=      5-min Rain = 0
KFL1 110134Z 28003KT 05/M11 A3007 RMK A01 T00531110  RH  030%=      5-min Rain = 0
KFL1 110135Z 29003KT 05/M11 A3007 RMK A01 T00531111  RH  030%=      5-min Rain = 0
KFL1 110136Z 29003KT 05/M11 A3007 RMK A01 T00521112  RH  029%=      5-min Rain = 0
KFL1 110137Z 29004KT 05/M11 A3007 RMK A01 T00521111  RH  030%=      5-min Rain = 0
KFL1 110138Z 29004KT 05/M11 A3007 RMK A01 T00531110  RH  030%=      5-min Rain = 0
KFL1 110139Z 29004KT 05/M11 A3007 RMK A01 T00521112  RH  029%=      5-min Rain = 0
KFL1 110140Z 29004KT 05/M11 A3007 RMK A01 T00521112  RH  029%=      5-min Rain = 0
KFL1 110141Z 29004KT 05/M11 A3007 RMK A01 T00531112  RH  029%=      5-min Rain = 0
KFL1 110142Z 29004KT 06/M11 A3007 RMK A01 T00561110  RH  029%=      5-min Rain = 0
KFL1 110143Z 30004KT 06/M11 A3007 RMK A01 T00561109  RH  029%=      5-min Rain = 0
KFL1 110144Z 29004KT 06/M11 A3007 RMK A01 T00551110  RH  029%=      5-min Rain = 0
KFL1 110145Z 29005KT 05/M11 A3007 RMK A01 T00541112  RH  029%=      5-min Rain = 0
KFL1 110146Z 29004KT 05/M10 A3007 RMK A01 T00541104  RH  031%=      5-min Rain = 0
KFL1 110147Z 29004KT 05/M11 A3007 RMK A01 T00471109  RH  031%=      5-min Rain = 0
KFL1 110148Z 30004KT 05/M11 A3007 RMK A01 T00471112  RH  030%=      5-min Rain = 0
KFL1 110149Z 31004KT 05/M11 A3007 RMK A01 T00491110  RH  031%=      5-min Rain = 0
KFL1 110150Z 31005KT 05/M11 A3007 RMK A01 T00471110  RH  031%=      5-min Rain = 0
KFL1 110151Z 31004KT 05/M11 A3008 RMK A01 T00481109  RH  031%=      5-min Rain = 0
KFL1 110152Z 31005KT 04/M11 A3008 RMK A01 T00431105  RH  033%=      5-min Rain = 0
KFL1 110153Z 32005KT 04/M10 A3008 RMK A01 T00361098  RH  037%=      5-min Rain = 0
KFL1 110154Z 32005KT 03/M09 A3008 RMK A01 T00271092  RH  041%=      5-min Rain = 0
KFL1 110155Z 32005KT 02/M09 A3008 RMK A01 T00211087  RH  045%=      5-min Rain = 0
KFL1 110156Z 33005KT 02/M09 A3008 RMK A01 T00151085  RH  048%=      5-min Rain = 0
KFL1 110157Z 33006KT 01/M08 A3008 RMK A01 T00111084  RH  049%=      5-min Rain = 0
KFL1 110158Z 33006KT 01/M09 A3008 RMK A01 T00101089  RH  048%=      5-min Rain = 0
KFL1 110159Z 33006KT 02/M10 A3008 RMK A01 T00161095  RH  044%=      5-min Rain = 0
KFL1 110200Z 33006KT 02/M10 A3008 RMK A01 T00231096  RH  041%=      5-min Rain = 0
KFL1 110201Z 33006KT 02/M09 A3008 RMK A01 T00241093  RH  042%=      5-min Rain = 0
KFL1 110202Z 33006KT 02/M08 A3008 RMK A01 T00201084  RH  046%=      5-min Rain = 0
KFL1 110203Z 33006KT 01/M08 A3008 RMK A01 T00131083  RH  049%=      5-min Rain = 0
KFL1 110204Z 33006KT 01/M08 A3008 RMK A01 T00081083  RH  051%=      5-min Rain = 0
KFL1 110205Z 34006KT 01/M08 A3008 RMK A01 T00071081  RH  051%=      5-min Rain = 0
KFL1 110206Z 33007KT 01/M08 A3008 RMK A01 T00071081  RH  052%=      5-min Rain = 0
KFL1 110207Z 33007KT 01/M08 A3008 RMK A01 T00071082  RH  051%=      5-min Rain = 0
KFL1 110208Z 33006KT 01/M09 A3008 RMK A01 T00141088  RH  047%=      5-min Rain = 0
KFL1 110209Z 33006KT 03/M09 A3008 RMK A01 T00261093  RH  041%=      5-min Rain = 0
KFL1 110210Z 33006KT 03/M09 A3008 RMK A01 T00331093  RH  039%=      5-min Rain = 0
KFL1 110211Z 33007KT 04/M10 A3008 RMK A01 T00351098  RH  037%=      5-min Rain = 0
KFL1 110212Z 32007KT 04/M10 A3009 RMK A01 T00371099  RH  036%=      5-min Rain = 0
KFL1 110213Z 32007KT 04/M10 A3009 RMK A01 T00391100  RH  036%=      5-min Rain = 0
KFL1 110214Z 31007KT 04/M10 A3009 RMK A01 T00391103  RH  035%=      5-min Rain = 0
KFL1 110215Z 31007KT 04/M10 A3008 RMK A01 T00431102  RH  034%=      5-min Rain = 0
KFL1 110216Z 31007KT 05/M10 A3008 RMK A01 T00451104  RH  033%=      5-min Rain = 0
KFL1 110217Z 31007KT 05/M11 A3008 RMK A01 T00471106  RH  032%=      5-min Rain = 0
KFL1 110218Z 31007KT 05/M11 A3008 RMK A01 T00491106  RH  032%=      5-min Rain = 0
KFL1 110219Z 30007KT 05/M11 A3008 RMK A01 T00521106  RH  031%=      5-min Rain = 0
KFL1 110220Z 30007KT 05/M11 A3009 RMK A01 T00521106  RH  031%=      5-min Rain = 0
KFL1 110221Z 31006KT 05/M11 A3009 RMK A01 T00521105  RH  031%=      5-min Rain = 0
KFL1 110222Z 31006KT 05/M11 A3009 RMK A01 T00511106  RH  031%=      5-min Rain = 0
KFL1 110223Z 31006KT 05/M11 A3009 RMK A01 T00501107  RH  031%=      5-min Rain = 0
KFL1 110224Z 31006KT 05/M11 A3009 RMK A01 T00501106  RH  031%=      5-min Rain = 0
KFL1 110225Z 31006KT 05/M10 A3009 RMK A01 T00481104  RH  032%=      5-min Rain = 0
KFL1 110226Z 31006KT 05/M11 A3009 RMK A01 T00451105  RH  033%=      5-min Rain = 0
KFL1 110227Z 32005KT 04/M11 A3009 RMK A01 T00441106  RH  032%=      5-min Rain = 0
KFL1 110228Z 32006KT 05/M10 A3009 RMK A01 T00451103  RH  033%=      5-min Rain = 0
KFL1 110229Z 32005KT 04/M11 A3009 RMK A01 T00431105  RH  033%=      5-min Rain = 0
KFL1 110230Z 32006KT 04/M10 A3009 RMK A01 T00431103  RH  034%=      5-min Rain = 0
KFL1 110231Z 32006KT 04/M10 A3009 RMK A01 T00421102  RH  034%=      5-min Rain = 0
KFL1 110232Z 32006KT 04/M10 A3009 RMK A01 T00421102  RH  034%=      5-min Rain = 0
KFL1 110233Z 32006KT 04/M10 A3009 RMK A01 T00411104  RH  034%=      5-min Rain = 0
KFL1 110234Z 32006KT 04/M10 A3009 RMK A01 T00421102  RH  034%=      5-min Rain = 0
KFL1 110235Z 32006KT 04/M10 A3009 RMK A01 T00411102  RH  035%=      5-min Rain = 0
KFL1 110236Z 32006KT 04/M10 A3009 RMK A01 T00391103  RH  035%=      5-min Rain = 0
KFL1 110237Z 32006KT 04/M10 A3009 RMK A01 T00391104  RH  034%=      5-min Rain = 0
KFL1 110238Z 32006KT 04/M10 A3009 RMK A01 T00411103  RH  034%=      5-min Rain = 0
KFL1 110239Z 32006KT 04/M10 A3009 RMK A01 T00401102  RH  035%=      5-min Rain = 0
KFL1 110240Z 33006KT 04/M10 A3009 RMK A01 T00391101  RH  035%=      5-min Rain = 0
KFL1 110241Z 33006KT 04/M10 A3009 RMK A01 T00401102  RH  035%=      5-min Rain = 0
KFL1 110242Z 33006KT 04/M10 A3009 RMK A01 T00391102  RH  035%=      5-min Rain = 0
KFL1 110243Z 33006KT 04/M10 A3009 RMK A01 T00391103  RH  035%=      5-min Rain = 0
KFL1 110244Z 32006KT 04/M10 A3009 RMK A01 T00391103  RH  035%=      5-min Rain = 0
KFL1 110245Z 32007KT 04/M10 A3009 RMK A01 T00391101  RH  035%=      5-min Rain = 0
KFL1 110246Z 32006KT 04/M10 A3009 RMK A01 T00371102  RH  036%=      5-min Rain = 0
KFL1 110247Z 32006KT 04/M10 A3009 RMK A01 T00381100  RH  036%=      5-min Rain = 0
KFL1 110248Z 32006KT 04/M10 A3009 RMK A01 T00371101  RH  036%=      5-min Rain = 0
KFL1 110249Z 32006KT 04/M10 A3008 RMK A01 T00391101  RH  035%=      5-min Rain = 0
KFL1 110250Z 32006KT 04/M10 A3009 RMK A01 T00411102  RH  035%=      5-min Rain = 0
KFL1 110251Z 31006KT 04/M10 A3009 RMK A01 T00421103  RH  034%=      5-min Rain = 0
KFL1 110252Z 31006KT 04/M10 A3008 RMK A01 T00411104  RH  034%=      5-min Rain = 0
KFL1 110253Z 31005KT 04/M10 A3008 RMK A01 T00421103  RH  034%=      5-min Rain = 0
KFL1 110254Z 31005KT 04/M10 A3008 RMK A01 T00401103  RH  034%=      5-min Rain = 0
KFL1 110255Z 31005KT 04/M10 A3008 RMK A01 T00371100  RH  036%=      5-min Rain = 0
KFL1 110256Z 32005KT 03/M10 A3008 RMK A01 T00341102  RH  036%=      5-min Rain = 0
KFL1 110257Z 32005KT 03/M10 A3008 RMK A01 T00341103  RH  036%=      5-min Rain = 0
KFL1 110258Z 32006KT 04/M10 A3008 RMK A01 T00351103  RH  036%=      5-min Rain = 0
KFL1 110259Z 31006KT 04/M10 A3008 RMK A01 T00351102  RH  036%=      5-min Rain = 0
KFL1 110300Z 32006KT 04/M10 A3009 RMK A01 T00351101  RH  036%=      5-min Rain = 0
KFL1 110301Z 32006KT 04/M10 A3009 RMK A01 T00351099  RH  037%=      5-min Rain = 0
KFL1 110302Z 32006KT 03/M10 A3009 RMK A01 T00331099  RH  037%=      5-min Rain = 0
KFL1 110303Z 32007KT 03/M10 A3009 RMK A01 T00311100  RH  038%=      5-min Rain = 0
KFL1 110304Z 32006KT 03/M10 A3009 RMK A01 T00331098  RH  038%=      5-min Rain = 0
KFL1 110305Z 32006KT 03/M10 A3009 RMK A01 T00301099  RH  038%=      5-min Rain = 0
KFL1 110306Z 32007KT 03/M10 A3009 RMK A01 T00301100  RH  038%=      5-min Rain = 0
KFL1 110307Z 32007KT 03/M10 A3009 RMK A01 T00311099  RH  038%=      5-min Rain = 0
KFL1 110308Z 32007KT 03/M10 A3009 RMK A01 T00311100  RH  038%=      5-min Rain = 0
KFL1 110309Z 32007KT 03/M10 A3009 RMK A01 T00311099  RH  038%=      5-min Rain = 0
KFL1 110310Z 32007KT 03/M10 A3009 RMK A01 T00321099  RH  038%=      5-min Rain = 0
KFL1 110311Z 31007KT 03/M10 A3009 RMK A01 T00341100  RH  037%=      5-min Rain = 0
KFL1 110312Z 31007KT 04/M10 A3009 RMK A01 T00351103  RH  036%=      5-min Rain = 0
KFL1 110313Z 31007KT 04/M10 A3009 RMK A01 T00381104  RH  035%=      5-min Rain = 0
KFL1 110314Z 31007KT 04/M10 A3009 RMK A01 T00411104  RH  034%=      5-min Rain = 0
KFL1 110315Z 31007KT 04/M10 A3009 RMK A01 T00431103  RH  034%=      5-min Rain = 0
KFL1 110316Z 31007KT 04/M11 A301 RMK A01 T00431105  RH  033%=      5-min Rain = 0
KFL1 110317Z 31007KT 04/M11 A301 RMK A01 T00431105  RH  033%=      5-min Rain = 0
KFL1 110318Z 31007KT 04/M10 A301 RMK A01 T00431103  RH  034%=      5-min Rain = 0
KFL1 110319Z 32007KT 04/M10 A301 RMK A01 T00411103  RH  034%=      5-min Rain = 0
KFL1 110320Z 32007KT 04/M10 A301 RMK A01 T00391101  RH  035%=      5-min Rain = 0
KFL1 110321Z 32007KT 04/M10 A301 RMK A01 T00391099  RH  036%=      5-min Rain = 0
KFL1 110322Z 33006KT 04/M10 A301 RMK A01 T00371098  RH  036%=      5-min Rain = 0
KFL1 110323Z 33007KT 04/M10 A301 RMK A01 T00351099  RH  037%=      5-min Rain = 0
KFL1 110324Z 33007KT 04/M10 A301 RMK A01 T00351099  RH  037%=      5-min Rain = 0
KFL1 110325Z 32007KT 03/M10 A301 RMK A01 T00341099  RH  037%=      5-min Rain = 0
KFL1 110326Z 32007KT 03/M10 A301 RMK A01 T00341097  RH  038%=      5-min Rain = 0
KFL1 110327Z 32007KT 03/M10 A301 RMK A01 T00341097  RH  038%=      5-min Rain = 0
KFL1 110328Z 32007KT 03/M10 A301 RMK A01 T00341097  RH  038%=      5-min Rain = 0
KFL1 110329Z 33007KT 04/M10 A301 RMK A01 T00351097  RH  037%=      5-min Rain = 0
KFL1 110330Z 32007KT 04/M10 A301 RMK A01 T00371096  RH  037%=      5-min Rain = 0
KFL1 110331Z 32007KT 04/M10 A301 RMK A01 T00361096  RH  037%=      5-min Rain = 0
KFL1 110332Z 32007KT 04/M10 A301 RMK A01 T00371095  RH  037%=      5-min Rain = 0
KFL1 110333Z 32007KT 04/M10 A301 RMK A01 T00361096  RH  037%=      5-min Rain = 0
KFL1 110334Z 32007KT 04/M10 A301 RMK A01 T00361098  RH  037%=      5-min Rain = 0
KFL1 110335Z 32006KT 04/M10 A301 RMK A01 T00371097  RH  037%=      5-min Rain = 0
KFL1 110336Z 32007KT 04/M10 A301 RMK A01 T00361098  RH  037%=      5-min Rain = 0
KFL1 110337Z 32007KT 04/M10 A301 RMK A01 T00371097  RH  037%=      5-min Rain = 0
KFL1 110338Z 32006KT 04/M10 A301 RMK A01 T00371099  RH  036%=      5-min Rain = 0
KFL1 110339Z 33006KT 04/M10 A301 RMK A01 T00391098  RH  036%=      5-min Rain = 0
KFL1 110340Z 33006KT 04/M10 A301 RMK A01 T00381100  RH  036%=      5-min Rain = 0
KFL1 110341Z 33007KT 04/M10 A301 RMK A01 T00401098  RH  036%=      5-min Rain = 0
KFL1 110342Z 33007KT 04/M10 A301 RMK A01 T00401097  RH  036%=      5-min Rain = 0
KFL1 110343Z 33007KT 04/M10 A301 RMK A01 T00391097  RH  036%=      5-min Rain = 0
KFL1 110344Z 33007KT 04/M10 A301 RMK A01 T00381097  RH  037%=      5-min Rain = 0
KFL1 110345Z 33007KT 04/M10 A301 RMK A01 T00371097  RH  037%=      5-min Rain = 0
KFL1 110346Z 33007KT 04/M10 A301 RMK A01 T00381096  RH  037%=      5-min Rain = 0
KFL1 110347Z 33007KT 04/M10 A301 RMK A01 T00391095  RH  037%=      5-min Rain = 0
KFL1 110348Z 33008KT 04/M10 A301 RMK A01 T00391097  RH  036%=      5-min Rain = 0
KFL1 110349Z 33007KT 04/M10 A301 RMK A01 T00391098  RH  036%=      5-min Rain = 0
KFL1 110350Z 33007KT 04/M10 A301 RMK A01 T00391098  RH  036%=      5-min Rain = 0
KFL1 110351Z 33007KT 04/M10 A301 RMK A01 T00391099  RH  036%=      5-min Rain = 0
KFL1 110352Z 33007KT 04/M10 A301 RMK A01 T00391098  RH  036%=      5-min Rain = 0
KFL1 110353Z 33007KT 04/M10 A301 RMK A01 T00411095  RH  036%=      5-min Rain = 0
KFL1 110354Z 33008KT 04/M10 A301 RMK A01 T00401097  RH  036%=      5-min Rain = 0
KFL1 110355Z 33007KT 04/M10 A301 RMK A01 T00401097  RH  036%=      5-min Rain = 0
KFL1 110356Z 33007KT 04/M10 A301 RMK A01 T00401099  RH  036%=      5-min Rain = 0
KFL1 110357Z 33008KT 04/M10 A301 RMK A01 T00391099  RH  036%=      5-min Rain = 0
KFL1 110358Z 33007KT 04/M10 A301 RMK A01 T00381100  RH  036%=      5-min Rain = 0
KFL1 110359Z 33008KT 04/M10 A301 RMK A01 T00401098  RH  036%=      5-min Rain = 0
KFL1 110400Z 33007KT 04/M10 A301 RMK A01 T00401099  RH  036%=      5-min Rain = 0
KFL1 110401Z 33007KT 04/M10 A301 RMK A01 T00411100  RH  035%=      5-min Rain = 0
KFL1 110402Z 33007KT 04/M10 A301 RMK A01 T00401101  RH  035%=      5-min Rain = 0
KFL1 110403Z 33007KT 04/M10 A301 RMK A01 T00411100  RH  035%=      5-min Rain = 0
KFL1 110404Z 33006KT 04/M10 A301 RMK A01 T00421099  RH  035%=      5-min Rain = 0
KFL1 110405Z 33006KT 04/M10 A301 RMK A01 T00401100  RH  035%=      5-min Rain = 0
KFL1 110406Z 33007KT 04/M10 A301 RMK A01 T00391100  RH  036%=      5-min Rain = 0
KFL1 110407Z 33006KT 04/M10 A301 RMK A01 T00391099  RH  036%=      5-min Rain = 0
KFL1 110408Z 33007KT 04/M10 A301 RMK A01 T00381101  RH  035%=      5-min Rain = 0
KFL1 110409Z 33007KT 04/M10 A301 RMK A01 T00371102  RH  035%=      5-min Rain = 0
KFL1 110410Z 33006KT 04/M10 A301 RMK A01 T00371102  RH  035%=      5-min Rain = 0
KFL1 110411Z 33006KT 04/M10 A301 RMK A01 T00381100  RH  036%=      5-min Rain = 0
KFL1 110412Z 33006KT 04/M10 A301 RMK A01 T00381098  RH  036%=      5-min Rain = 0
KFL1 110413Z 33006KT 04/M10 A301 RMK A01 T00371101  RH  036%=      5-min Rain = 0
KFL1 110414Z 33006KT 04/M10 A301 RMK A01 T00361103  RH  036%=      5-min Rain = 0
KFL1 110415Z 33006KT 04/M10 A301 RMK A01 T00361104  RH  035%=      5-min Rain = 0
KFL1 110416Z 34005KT 04/M10 A301 RMK A01 T00381103  RH  035%=      5-min Rain = 0
KFL1 110417Z 34005KT 04/M11 A301 RMK A01 T00361105  RH  035%=      5-min Rain = 0
KFL1 110418Z 34004KT 04/M11 A301 RMK A01 T00351105  RH  035%=      5-min Rain = 0
KFL1 110419Z 33004KT 03/M10 A301 RMK A01 T00331100  RH  037%=      5-min Rain = 0
KFL1 110420Z 33004KT 03/M09 A301 RMK A01 T00281094  RH  040%=      5-min Rain = 0
KFL1 110421Z 33004KT 02/M09 A301 RMK A01 T00231089  RH  043%=      5-min Rain = 0
KFL1 110422Z 33004KT 02/M09 A301 RMK A01 T00191089  RH  045%=      5-min Rain = 0
KFL1 110423Z 33004KT 02/M09 A301 RMK A01 T00151086  RH  047%=      5-min Rain = 0
KFL1 110424Z 33004KT 01/M09 A301 RMK A01 T00141086  RH  047%=      5-min Rain = 0
KFL1 110425Z 33004KT 01/M09 A301 RMK A01 T00131087  RH  047%=      5-min Rain = 0
KFL1 110426Z 33004KT 01/M09 A301 RMK A01 T00111085  RH  048%=      5-min Rain = 0
KFL1 110427Z 33004KT 01/M09 A301 RMK A01 T00111085  RH  049%=      5-min Rain = 0
KFL1 110428Z 33004KT 01/M09 A301 RMK A01 T00121087  RH  048%=      5-min Rain = 0
KFL1 110429Z 34004KT 02/M09 A301 RMK A01 T00151091  RH  045%=      5-min Rain = 0
KFL1 110430Z 34005KT 02/M09 A301 RMK A01 T00161091  RH  045%=      5-min Rain = 0
KFL1 110431Z 34005KT 02/M09 A301 RMK A01 T00161092  RH  044%=      5-min Rain = 0
KFL1 110432Z 34004KT 02/M10 A301 RMK A01 T00171095  RH  043%=      5-min Rain = 0
KFL1 110433Z 35004KT 02/M10 A301 RMK A01 T00201101  RH  040%=      5-min Rain = 0
KFL1 110434Z 00003KT 02/M10 A301 RMK A01 T00241100  RH  039%=      5-min Rain = 0
KFL1 110435Z 03003KT 03/M10 A301 RMK A01 T00261098  RH  040%=      5-min Rain = 0
KFL1 110436Z 04003KT 02/M10 A301 RMK A01 T00231095  RH  041%=      5-min Rain = 0
KFL1 110437Z 04004KT 02/M09 A301 RMK A01 T00211094  RH  042%=      5-min Rain = 0
KFL1 110438Z 03004KT 02/M09 A301 RMK A01 T00221091  RH  043%=      5-min Rain = 0
KFL1 110439Z 03005KT 02/M09 A301 RMK A01 T00221092  RH  043%=      5-min Rain = 0
KFL1 110440Z 02006KT 02/M09 A301 RMK A01 T00221094  RH  042%=      5-min Rain = 0
KFL1 110441Z 02007KT 03/M09 A301 RMK A01 T00251094  RH  041%=      5-min Rain = 0
KFL1 110442Z 02007KT 03/M09 A301 RMK A01 T00261091  RH  042%=      5-min Rain = 0
KFL1 110443Z 01007KT 03/M09 A301 RMK A01 T00251087  RH  044%=      5-min Rain = 0
KFL1 110444Z 01007KT 02/M09 A301 RMK A01 T00221086  RH  045%=      5-min Rain = 0
KFL1 110445Z 02007KT 02/M08 A301 RMK A01 T00211084  RH  046%=      5-min Rain = 0
KFL1 110446Z 02007KT 02/M08 A301 RMK A01 T00201083  RH  046%=      5-min Rain = 0
KFL1 110447Z 02008KT 02/M08 A301 RMK A01 T00191084  RH  046%=      5-min Rain = 0
KFL1 110448Z 03007KT 02/M08 A301 RMK A01 T00201084  RH  046%=      5-min Rain = 0
KFL1 110449Z 04004KT 02/M09 A301 RMK A01 T00221086  RH  045%=      5-min Rain = 0
KFL1 110450Z 04005KT 02/M09 A301 RMK A01 T00211088  RH  044%=      5-min Rain = 0
KFL1 110451Z 04006KT 02/M09 A301 RMK A01 T00211091  RH  043%=      5-min Rain = 0
KFL1 110452Z 03007KT 02/M09 A301 RMK A01 T00221093  RH  042%=      5-min Rain = 0
KFL1 110453Z 03007KT 03/M09 A301 RMK A01 T00261093  RH  041%=      5-min Rain = 0
KFL1 110454Z 02007KT 03/M10 A301 RMK A01 T00281095  RH  040%=      5-min Rain = 0
KFL1 110455Z 02008KT 03/M10 A301 RMK A01 T00301097  RH  039%=      5-min Rain = 0
KFL1 110456Z 02009KT 03/M09 A301 RMK A01 T00331093  RH  039%=      5-min Rain = 0
KFL1 110457Z 02009KT 03/M09 A301 RMK A01 T00321088  RH  041%=      5-min Rain = 0
KFL1 110458Z 01009KT 03/M09 A301 RMK A01 T00301087  RH  042%=      5-min Rain = 0
KFL1 110459Z 01009KT 03/M09 A301 RMK A01 T00281088  RH  042%=      5-min Rain = 0
KFL1 110500Z 01009KT 03/M09 A301 RMK A01 T00281088  RH  042%=      5-min Rain = 0
KFL1 110501Z 01008KT 03/M09 A301 RMK A01 T00281088  RH  042%=      5-min Rain = 0
KFL1 110502Z 00007KT 03/M09 A301 RMK A01 T00281089  RH  042%=      5-min Rain = 0
KFL1 110503Z 36006KT 03/M09 A301 RMK A01 T00301090  RH  041%=      5-min Rain = 0
KFL1 110504Z 36005KT 03/M09 A301 RMK A01 T00311090  RH  041%=      5-min Rain = 0
KFL1 110505Z 00005KT 03/M09 A301 RMK A01 T00281086  RH  043%=      5-min Rain = 0
KFL1 110506Z 00005KT 03/M08 A301 RMK A01 T00261084  RH  044%=      5-min Rain = 0
KFL1 110507Z 36004KT 02/M08 A301 RMK A01 T00241084  RH  045%=      5-min Rain = 0
KFL1 110508Z 35004KT 02/M09 A301 RMK A01 T00221085  RH  045%=      5-min Rain = 0
KFL1 110509Z 00005KT 02/M08 A301 RMK A01 T00211081  RH  047%=      5-min Rain = 0
KFL1 110510Z 01005KT 02/M08 A301 RMK A01 T00191083  RH  047%=      5-min Rain = 0
KFL1 110511Z 01005KT 02/M08 A301 RMK A01 T00181083  RH  047%=      5-min Rain = 0
KFL1 110512Z 01005KT 02/M08 A301 RMK A01 T00181084  RH  047%=      5-min Rain = 0
KFL1 110513Z 01006KT 02/M09 A301 RMK A01 T00201086  RH  046%=      5-min Rain = 0
KFL1 110514Z 00006KT 02/M09 A301 RMK A01 T00171086  RH  046%=      5-min Rain = 0
KFL1 110515Z 00007KT 02/M08 A301 RMK A01 T00181081  RH  048%=      5-min Rain = 0
KFL1 110516Z 00006KT 02/M08 A301 RMK A01 T00151079  RH  050%=      5-min Rain = 0
KFL1 110517Z 00006KT 01/M08 A301 RMK A01 T00141077  RH  051%=      5-min Rain = 0
KFL1 110518Z 01005KT 01/M08 A301 RMK A01 T00131079  RH  050%=      5-min Rain = 0
KFL1 110519Z 01005KT 02/M08 A301 RMK A01 T00151083  RH  048%=      5-min Rain = 0
KFL1 110520Z 00005KT 02/M09 A301 RMK A01 T00171089  RH  045%=      5-min Rain = 0
KFL1 110521Z 01005KT 02/M09 A301 RMK A01 T00191088  RH  045%=      5-min Rain = 0
KFL1 110522Z 01005KT 02/M08 A301 RMK A01 T00211084  RH  046%=      5-min Rain = 0
KFL1 110523Z 02004KT 02/M08 A301 RMK A01 T00201083  RH  047%=      5-min Rain = 0
KFL1 110524Z 03003KT 02/M08 A301 RMK A01 T00201084  RH  046%=      5-min Rain = 0
KFL1 110525Z 03004KT 02/M08 A301 RMK A01 T00191081  RH  048%=      5-min Rain = 0
KFL1 110526Z 03003KT 02/M08 A301 RMK A01 T00181083  RH  047%=      5-min Rain = 0
KFL1 110527Z 03004KT 02/M09 A301 RMK A01 T00171087  RH  046%=      5-min Rain = 0
KFL1 110528Z 03004KT 02/M09 A301 RMK A01 T00191086  RH  046%=      5-min Rain = 0
KFL1 110529Z 03004KT 02/M09 A301 RMK A01 T00191088  RH  045%=      5-min Rain = 0
KFL1 110530Z 02004KT 02/M09 A301 RMK A01 T00191088  RH  045%=      5-min Rain = 0
KFL1 110531Z 02004KT 02/M08 A301 RMK A01 T00211083  RH  046%=      5-min Rain = 0
KFL1 110532Z 02004KT 02/M08 A301 RMK A01 T00171084  RH  047%=      5-min Rain = 0
KFL1 110533Z 01004KT 02/M08 A301 RMK A01 T00161081  RH  048%=      5-min Rain = 0
KFL1 110534Z 00004KT 01/M08 A301 RMK A01 T00141079  RH  050%=      5-min Rain = 0
KFL1 110535Z 00004KT 01/M08 A301 RMK A01 T00141080  RH  050%=      5-min Rain = 0
KFL1 110536Z 00005KT 02/M08 A301 RMK A01 T00151082  RH  049%=      5-min Rain = 0
KFL1 110537Z 00005KT 02/M08 A301 RMK A01 T00161082  RH  048%=      5-min Rain = 0
KFL1 110538Z 35004KT 02/M08 A301 RMK A01 T00151077  RH  050%=      5-min Rain = 0
KFL1 110539Z 00005KT 01/M09 A301 RMK A01 T00141085  RH  048%=      5-min Rain = 0
KFL1 110540Z 01005KT 02/M09 A301 RMK A01 T00161090  RH  045%=      5-min Rain = 0
KFL1 110541Z 01004KT 02/M09 A301 RMK A01 T00191089  RH  044%=      5-min Rain = 0
KFL1 110542Z 03004KT 02/M09 A301 RMK A01 T00211087  RH  044%=      5-min Rain = 0
KFL1 110543Z 04004KT 02/M09 A301 RMK A01 T00211086  RH  045%=      5-min Rain = 0
KFL1 110544Z 04005KT 02/M09 A301 RMK A01 T00211088  RH  044%=      5-min Rain = 0
KFL1 110545Z 04006KT 02/M09 A301 RMK A01 T00201090  RH  044%=      5-min Rain = 0
KFL1 110546Z 04006KT 02/M09 A301 RMK A01 T00211089  RH  044%=      5-min Rain = 0
KFL1 110547Z 05006KT 02/M09 A301 RMK A01 T00201089  RH  044%=      5-min Rain = 0
KFL1 110548Z 05006KT 02/M09 A301 RMK A01 T00211087  RH  045%=      5-min Rain = 0
KFL1 110549Z 05006KT 02/M09 A301 RMK A01 T00211086  RH  045%=      5-min Rain = 0
KFL1 110550Z 05007KT 02/M08 A301 RMK A01 T00201084  RH  046%=      5-min Rain = 0
KFL1 110551Z 04007KT 02/M08 A301 RMK A01 T00211083  RH  046%=      5-min Rain = 0
KFL1 110552Z 04007KT 02/M08 A301 RMK A01 T00201083  RH  046%=      5-min Rain = 0
KFL1 110553Z 03007KT 02/M08 A301 RMK A01 T00211082  RH  046%=      5-min Rain = 0
KFL1 110554Z 03007KT 02/M08 A301 RMK A01 T00201083  RH  046%=      5-min Rain = 0
KFL1 110555Z 03006KT 02/M08 A301 RMK A01 T00221082  RH  046%=      5-min Rain = 0
KFL1 110556Z 04007KT 02/M08 A301 RMK A01 T00221082  RH  046%=      5-min Rain = 0
KFL1 110557Z 03007KT 02/M09 A301 RMK A01 T00211085  RH  045%=      5-min Rain = 0
KFL1 110558Z 03005KT 02/M09 A301 RMK A01 T00211085  RH  045%=      5-min Rain = 0
KFL1 110559Z 03004KT 02/M08 A301 RMK A01 T00221083  RH  046%=      5-min Rain = 0

Page generated in 0.1663 seconds.